<?xml version="1.0" encoding="UTF-8" standalone="no" ?>
<gpx xmlns="http://www.topografix.com/GPX/1/1" xmlns:xsi="http://www.w3.org/2001/XMLSchema-instance" xsi:schemaLocation="http://www.topografix.com/GPX/1/1 http://www.topografix.com/GPX/1/1/gpx.xsd" version="1.1" creator="VisuGPX - https://www.visugpx.com">
  <metadata>
    <name>83-DD+DA-Aups</name>
    <desc><![CDATA[83-DD+DA-Aups - repas commun D/D+/DA : la Croix des Pins, les chapelles 
2025-05-18-ORB-ARR-HCH]]></desc>
  </metadata>
  <trk>
    <name><![CDATA[2025-05-18-DD+-Aups-ORB-HCH-ARR]]></name>
    <extensions>
      <line xmlns="http://www.topografix.com/GPX/gpx_style/0/2">
        <width>4</width>
      </line>
    </extensions>
    <trkseg>
      <trkpt lat="43.62606" lon="6.22569">
        <ele>497.6</ele>
        <time>2025-05-18T06:31:52.000Z</time>
      </trkpt>
      <trkpt lat="43.62606" lon="6.22569">
        <ele>497.6</ele>
        <time>2025-05-18T06:31:53.000Z</time>
      </trkpt>
      <trkpt lat="43.62606" lon="6.22569">
        <ele>497.6</ele>
        <time>2025-05-18T06:31:54.000Z</time>
      </trkpt>
      <trkpt lat="43.62606" lon="6.22569">
        <ele>497.6</ele>
        <time>2025-05-18T06:31:55.000Z</time>
      </trkpt>
      <trkpt lat="43.62606" lon="6.22569">
        <ele>497.6</ele>
        <time>2025-05-18T06:31:56.000Z</time>
      </trkpt>
      <trkpt lat="43.62606" lon="6.22569">
        <ele>497.6</ele>
        <time>2025-05-18T06:31:59.000Z</time>
      </trkpt>
      <trkpt lat="43.62606" lon="6.22569">
        <ele>497.7</ele>
        <time>2025-05-18T06:32:00.000Z</time>
      </trkpt>
      <trkpt lat="43.62606" lon="6.22569">
        <ele>497.7</ele>
        <time>2025-05-18T06:32:01.000Z</time>
      </trkpt>
      <trkpt lat="43.62607" lon="6.22568">
        <ele>497.6</ele>
        <time>2025-05-18T06:32:06.000Z</time>
      </trkpt>
      <trkpt lat="43.62607" lon="6.22568">
        <ele>497.6</ele>
        <time>2025-05-18T06:32:07.000Z</time>
      </trkpt>
      <trkpt lat="43.62607" lon="6.22568">
        <ele>497.6</ele>
        <time>2025-05-18T06:32:08.000Z</time>
      </trkpt>
      <trkpt lat="43.62607" lon="6.22568">
        <ele>497.3</ele>
        <time>2025-05-18T06:32:46.000Z</time>
      </trkpt>
      <trkpt lat="43.62607" lon="6.22568">
        <ele>497.1</ele>
        <time>2025-05-18T06:32:47.000Z</time>
      </trkpt>
      <trkpt lat="43.62606" lon="6.22569">
        <ele>496.8</ele>
        <time>2025-05-18T06:32:48.000Z</time>
      </trkpt>
      <trkpt lat="43.62606" lon="6.22569">
        <ele>496.3</ele>
        <time>2025-05-18T06:32:49.000Z</time>
      </trkpt>
      <trkpt lat="43.62606" lon="6.22569">
        <ele>496.6</ele>
        <time>2025-05-18T06:32:50.000Z</time>
      </trkpt>
      <trkpt lat="43.62606" lon="6.22569">
        <ele>497.6</ele>
        <time>2025-05-18T06:32:51.000Z</time>
      </trkpt>
      <trkpt lat="43.62606" lon="6.22568">
        <ele>497.5</ele>
        <time>2025-05-18T06:33:01.000Z</time>
      </trkpt>
      <trkpt lat="43.62606" lon="6.22568">
        <ele>497.6</ele>
        <time>2025-05-18T06:33:02.000Z</time>
      </trkpt>
      <trkpt lat="43.62606" lon="6.22568">
        <ele>497.6</ele>
        <time>2025-05-18T06:33:03.000Z</time>
      </trkpt>
      <trkpt lat="43.62606" lon="6.22568">
        <ele>497.6</ele>
        <time>2025-05-18T06:33:04.000Z</time>
      </trkpt>
      <trkpt lat="43.62606" lon="6.22568">
        <ele>497.5</ele>
        <time>2025-05-18T06:33:05.000Z</time>
      </trkpt>
      <trkpt lat="43.62606" lon="6.22568">
        <ele>497.5</ele>
        <time>2025-05-18T06:33:06.000Z</time>
      </trkpt>
      <trkpt lat="43.62606" lon="6.22569">
        <ele>497.4</ele>
        <time>2025-05-18T06:33:12.000Z</time>
      </trkpt>
      <trkpt lat="43.62606" lon="6.22568">
        <ele>497.4</ele>
        <time>2025-05-18T06:33:13.000Z</time>
      </trkpt>
      <trkpt lat="43.62606" lon="6.22567">
        <ele>497.4</ele>
        <time>2025-05-18T06:33:21.000Z</time>
      </trkpt>
      <trkpt lat="43.62606" lon="6.22567">
        <ele>497.4</ele>
        <time>2025-05-18T06:33:22.000Z</time>
      </trkpt>
      <trkpt lat="43.62606" lon="6.22567">
        <ele>497.4</ele>
        <time>2025-05-18T06:33:23.000Z</time>
      </trkpt>
      <trkpt lat="43.62606" lon="6.22567">
        <ele>497.3</ele>
        <time>2025-05-18T06:33:31.000Z</time>
      </trkpt>
      <trkpt lat="43.62607" lon="6.22567">
        <ele>497.3</ele>
        <time>2025-05-18T06:33:32.000Z</time>
      </trkpt>
      <trkpt lat="43.62607" lon="6.22567">
        <ele>497.3</ele>
        <time>2025-05-18T06:33:33.000Z</time>
      </trkpt>
      <trkpt lat="43.62607" lon="6.22567">
        <ele>497.3</ele>
        <time>2025-05-18T06:33:34.000Z</time>
      </trkpt>
      <trkpt lat="43.62607" lon="6.22567">
        <ele>497.3</ele>
        <time>2025-05-18T06:33:35.000Z</time>
      </trkpt>
      <trkpt lat="43.62607" lon="6.22567">
        <ele>497.3</ele>
        <time>2025-05-18T06:33:36.000Z</time>
      </trkpt>
      <trkpt lat="43.62608" lon="6.22567">
        <ele>497.2</ele>
        <time>2025-05-18T06:33:46.000Z</time>
      </trkpt>
      <trkpt lat="43.62608" lon="6.22567">
        <ele>497.2</ele>
        <time>2025-05-18T06:33:47.000Z</time>
      </trkpt>
      <trkpt lat="43.62607" lon="6.22565">
        <ele>497.2</ele>
        <time>2025-05-18T06:33:56.000Z</time>
      </trkpt>
      <trkpt lat="43.62608" lon="6.22565">
        <ele>497.2</ele>
        <time>2025-05-18T06:33:57.000Z</time>
      </trkpt>
      <trkpt lat="43.62608" lon="6.22565">
        <ele>497.2</ele>
        <time>2025-05-18T06:33:58.000Z</time>
      </trkpt>
      <trkpt lat="43.62608" lon="6.22565">
        <ele>497.2</ele>
        <time>2025-05-18T06:34:04.000Z</time>
      </trkpt>
      <trkpt lat="43.62608" lon="6.22565">
        <ele>497.2</ele>
        <time>2025-05-18T06:34:05.000Z</time>
      </trkpt>
      <trkpt lat="43.62608" lon="6.22565">
        <ele>497.2</ele>
        <time>2025-05-18T06:34:06.000Z</time>
      </trkpt>
      <trkpt lat="43.62608" lon="6.22565">
        <ele>497.2</ele>
        <time>2025-05-18T06:34:07.000Z</time>
      </trkpt>
      <trkpt lat="43.62608" lon="6.22565">
        <ele>497.2</ele>
        <time>2025-05-18T06:34:08.000Z</time>
      </trkpt>
      <trkpt lat="43.62608" lon="6.22565">
        <ele>497.3</ele>
        <time>2025-05-18T06:34:21.000Z</time>
      </trkpt>
      <trkpt lat="43.62608" lon="6.22565">
        <ele>497.3</ele>
        <time>2025-05-18T06:34:22.000Z</time>
      </trkpt>
      <trkpt lat="43.62608" lon="6.22565">
        <ele>497.3</ele>
        <time>2025-05-18T06:34:23.000Z</time>
      </trkpt>
      <trkpt lat="43.62608" lon="6.22565">
        <ele>497.3</ele>
        <time>2025-05-18T06:34:24.000Z</time>
      </trkpt>
      <trkpt lat="43.62608" lon="6.22565">
        <ele>497.3</ele>
        <time>2025-05-18T06:34:25.000Z</time>
      </trkpt>
      <trkpt lat="43.62608" lon="6.22564">
        <ele>497.1</ele>
        <time>2025-05-18T06:35:09.000Z</time>
      </trkpt>
      <trkpt lat="43.62608" lon="6.22564">
        <ele>497.1</ele>
        <time>2025-05-18T06:35:10.000Z</time>
      </trkpt>
      <trkpt lat="43.62608" lon="6.22563">
        <ele>497.1</ele>
        <time>2025-05-18T06:35:11.000Z</time>
      </trkpt>
      <trkpt lat="43.62608" lon="6.22563">
        <ele>497.1</ele>
        <time>2025-05-18T06:35:12.000Z</time>
      </trkpt>
      <trkpt lat="43.62608" lon="6.22563">
        <ele>497.1</ele>
        <time>2025-05-18T06:35:13.000Z</time>
      </trkpt>
      <trkpt lat="43.62608" lon="6.22566">
        <ele>497.1</ele>
        <time>2025-05-18T06:35:37.000Z</time>
      </trkpt>
      <trkpt lat="43.62608" lon="6.22566">
        <ele>497.1</ele>
        <time>2025-05-18T06:35:38.000Z</time>
      </trkpt>
      <trkpt lat="43.62608" lon="6.22567">
        <ele>497.1</ele>
        <time>2025-05-18T06:35:42.000Z</time>
      </trkpt>
      <trkpt lat="43.62608" lon="6.22567">
        <ele>497.1</ele>
        <time>2025-05-18T06:35:43.000Z</time>
      </trkpt>
      <trkpt lat="43.62609" lon="6.2257">
        <ele>497.1</ele>
        <time>2025-05-18T06:35:56.000Z</time>
      </trkpt>
      <trkpt lat="43.6261" lon="6.22571">
        <ele>497.1</ele>
        <time>2025-05-18T06:35:57.000Z</time>
      </trkpt>
      <trkpt lat="43.62617" lon="6.2258">
        <ele>497.1</ele>
        <time>2025-05-18T06:36:09.000Z</time>
      </trkpt>
      <trkpt lat="43.62617" lon="6.22582">
        <ele>497.1</ele>
        <time>2025-05-18T06:36:19.000Z</time>
      </trkpt>
      <trkpt lat="43.62617" lon="6.22582">
        <ele>497.1</ele>
        <time>2025-05-18T06:36:20.000Z</time>
      </trkpt>
      <trkpt lat="43.62617" lon="6.22582">
        <ele>497.1</ele>
        <time>2025-05-18T06:36:21.000Z</time>
      </trkpt>
      <trkpt lat="43.62617" lon="6.22582">
        <ele>497.1</ele>
        <time>2025-05-18T06:36:22.000Z</time>
      </trkpt>
      <trkpt lat="43.6262" lon="6.22571">
        <ele>497.1</ele>
        <time>2025-05-18T06:36:32.000Z</time>
      </trkpt>
      <trkpt lat="43.6262" lon="6.22557">
        <ele>497.1</ele>
        <time>2025-05-18T06:36:39.000Z</time>
      </trkpt>
      <trkpt lat="43.62619" lon="6.22544">
        <ele>497.2</ele>
        <time>2025-05-18T06:36:46.000Z</time>
      </trkpt>
      <trkpt lat="43.62627" lon="6.22536">
        <ele>497.3</ele>
        <time>2025-05-18T06:36:53.000Z</time>
      </trkpt>
      <trkpt lat="43.62634" lon="6.22527">
        <ele>497.9</ele>
        <time>2025-05-18T06:37:00.000Z</time>
      </trkpt>
      <trkpt lat="43.62641" lon="6.22519">
        <ele>498.8</ele>
        <time>2025-05-18T06:37:07.000Z</time>
      </trkpt>
      <trkpt lat="43.62648" lon="6.2251">
        <ele>499.4</ele>
        <time>2025-05-18T06:37:14.000Z</time>
      </trkpt>
      <trkpt lat="43.62658" lon="6.22506">
        <ele>499.7</ele>
        <time>2025-05-18T06:37:20.000Z</time>
      </trkpt>
      <trkpt lat="43.62667" lon="6.225">
        <ele>500.2</ele>
        <time>2025-05-18T06:37:28.000Z</time>
      </trkpt>
      <trkpt lat="43.62675" lon="6.22494">
        <ele>500.7</ele>
        <time>2025-05-18T06:37:35.000Z</time>
      </trkpt>
      <trkpt lat="43.62684" lon="6.22492">
        <ele>501.1</ele>
        <time>2025-05-18T06:37:41.000Z</time>
      </trkpt>
      <trkpt lat="43.62694" lon="6.22494">
        <ele>501.5</ele>
        <time>2025-05-18T06:37:48.000Z</time>
      </trkpt>
      <trkpt lat="43.62703" lon="6.22498">
        <ele>501.8</ele>
        <time>2025-05-18T06:37:55.000Z</time>
      </trkpt>
      <trkpt lat="43.62714" lon="6.225">
        <ele>501.9</ele>
        <time>2025-05-18T06:38:04.000Z</time>
      </trkpt>
      <trkpt lat="43.62708" lon="6.22508">
        <ele>501.6</ele>
        <time>2025-05-18T06:38:26.000Z</time>
      </trkpt>
      <trkpt lat="43.62707" lon="6.22509">
        <ele>501.6</ele>
        <time>2025-05-18T06:38:27.000Z</time>
      </trkpt>
      <trkpt lat="43.62707" lon="6.22507">
        <ele>501.4</ele>
        <time>2025-05-18T06:38:43.000Z</time>
      </trkpt>
      <trkpt lat="43.62707" lon="6.22506">
        <ele>501.4</ele>
        <time>2025-05-18T06:38:44.000Z</time>
      </trkpt>
      <trkpt lat="43.62707" lon="6.22506">
        <ele>501.4</ele>
        <time>2025-05-18T06:38:45.000Z</time>
      </trkpt>
      <trkpt lat="43.62716" lon="6.22503">
        <ele>501.3</ele>
        <time>2025-05-18T06:38:55.000Z</time>
      </trkpt>
      <trkpt lat="43.62717" lon="6.2249">
        <ele>501.9</ele>
        <time>2025-05-18T06:39:04.000Z</time>
      </trkpt>
      <trkpt lat="43.62709" lon="6.22478">
        <ele>502.1</ele>
        <time>2025-05-18T06:39:14.000Z</time>
      </trkpt>
      <trkpt lat="43.62711" lon="6.22466">
        <ele>502.3</ele>
        <time>2025-05-18T06:39:20.000Z</time>
      </trkpt>
      <trkpt lat="43.62715" lon="6.22453">
        <ele>502.4</ele>
        <time>2025-05-18T06:39:28.000Z</time>
      </trkpt>
      <trkpt lat="43.62719" lon="6.2244">
        <ele>502.6</ele>
        <time>2025-05-18T06:39:36.000Z</time>
      </trkpt>
      <trkpt lat="43.62719" lon="6.22434">
        <ele>502.9</ele>
        <time>2025-05-18T06:39:46.000Z</time>
      </trkpt>
      <trkpt lat="43.62719" lon="6.22434">
        <ele>502.9</ele>
        <time>2025-05-18T06:39:47.000Z</time>
      </trkpt>
      <trkpt lat="43.62718" lon="6.22434">
        <ele>502.9</ele>
        <time>2025-05-18T06:39:48.000Z</time>
      </trkpt>
      <trkpt lat="43.62719" lon="6.22433">
        <ele>503.1</ele>
        <time>2025-05-18T06:39:59.000Z</time>
      </trkpt>
      <trkpt lat="43.62719" lon="6.22432">
        <ele>503.1</ele>
        <time>2025-05-18T06:40:00.000Z</time>
      </trkpt>
      <trkpt lat="43.62719" lon="6.22433">
        <ele>503.1</ele>
        <time>2025-05-18T06:40:04.000Z</time>
      </trkpt>
      <trkpt lat="43.62719" lon="6.22433">
        <ele>503.1</ele>
        <time>2025-05-18T06:40:05.000Z</time>
      </trkpt>
      <trkpt lat="43.62719" lon="6.22433">
        <ele>503.1</ele>
        <time>2025-05-18T06:40:06.000Z</time>
      </trkpt>
      <trkpt lat="43.62719" lon="6.22432">
        <ele>503.1</ele>
        <time>2025-05-18T06:40:09.000Z</time>
      </trkpt>
      <trkpt lat="43.62719" lon="6.2243">
        <ele>503.1</ele>
        <time>2025-05-18T06:40:10.000Z</time>
      </trkpt>
      <trkpt lat="43.62723" lon="6.22419">
        <ele>503.3</ele>
        <time>2025-05-18T06:40:23.000Z</time>
      </trkpt>
      <trkpt lat="43.62733" lon="6.22419">
        <ele>503.6</ele>
        <time>2025-05-18T06:40:42.000Z</time>
      </trkpt>
      <trkpt lat="43.62743" lon="6.22424">
        <ele>503.8</ele>
        <time>2025-05-18T06:40:51.000Z</time>
      </trkpt>
      <trkpt lat="43.62752" lon="6.22424">
        <ele>503.8</ele>
        <time>2025-05-18T06:40:59.000Z</time>
      </trkpt>
      <trkpt lat="43.62761" lon="6.22424">
        <ele>503.9</ele>
        <time>2025-05-18T06:41:09.000Z</time>
      </trkpt>
      <trkpt lat="43.62772" lon="6.22424">
        <ele>504</ele>
        <time>2025-05-18T06:41:17.000Z</time>
      </trkpt>
      <trkpt lat="43.6278" lon="6.22431">
        <ele>504</ele>
        <time>2025-05-18T06:41:24.000Z</time>
      </trkpt>
      <trkpt lat="43.62791" lon="6.22434">
        <ele>504.3</ele>
        <time>2025-05-18T06:41:34.000Z</time>
      </trkpt>
      <trkpt lat="43.62801" lon="6.22438">
        <ele>504.5</ele>
        <time>2025-05-18T06:41:43.000Z</time>
      </trkpt>
      <trkpt lat="43.62809" lon="6.22446">
        <ele>504.7</ele>
        <time>2025-05-18T06:41:50.000Z</time>
      </trkpt>
      <trkpt lat="43.62819" lon="6.22443">
        <ele>505.3</ele>
        <time>2025-05-18T06:41:59.000Z</time>
      </trkpt>
      <trkpt lat="43.62827" lon="6.22439">
        <ele>505.8</ele>
        <time>2025-05-18T06:42:07.000Z</time>
      </trkpt>
      <trkpt lat="43.62835" lon="6.2243">
        <ele>506.1</ele>
        <time>2025-05-18T06:42:15.000Z</time>
      </trkpt>
      <trkpt lat="43.62843" lon="6.22422">
        <ele>506.4</ele>
        <time>2025-05-18T06:42:22.000Z</time>
      </trkpt>
      <trkpt lat="43.62851" lon="6.22415">
        <ele>506.8</ele>
        <time>2025-05-18T06:42:32.000Z</time>
      </trkpt>
      <trkpt lat="43.62859" lon="6.22408">
        <ele>507</ele>
        <time>2025-05-18T06:42:38.000Z</time>
      </trkpt>
      <trkpt lat="43.62867" lon="6.224">
        <ele>507.3</ele>
        <time>2025-05-18T06:42:46.000Z</time>
      </trkpt>
      <trkpt lat="43.62875" lon="6.22393">
        <ele>507.6</ele>
        <time>2025-05-18T06:42:54.000Z</time>
      </trkpt>
      <trkpt lat="43.62883" lon="6.22388">
        <ele>507.7</ele>
        <time>2025-05-18T06:43:00.000Z</time>
      </trkpt>
      <trkpt lat="43.62891" lon="6.22379">
        <ele>508</ele>
        <time>2025-05-18T06:43:09.000Z</time>
      </trkpt>
      <trkpt lat="43.62901" lon="6.22377">
        <ele>508.3</ele>
        <time>2025-05-18T06:43:19.000Z</time>
      </trkpt>
      <trkpt lat="43.6291" lon="6.22377">
        <ele>508.7</ele>
        <time>2025-05-18T06:43:26.000Z</time>
      </trkpt>
      <trkpt lat="43.62919" lon="6.22383">
        <ele>509</ele>
        <time>2025-05-18T06:43:33.000Z</time>
      </trkpt>
      <trkpt lat="43.62928" lon="6.22387">
        <ele>509.8</ele>
        <time>2025-05-18T06:43:47.000Z</time>
      </trkpt>
      <trkpt lat="43.62921" lon="6.22397">
        <ele>510.4</ele>
        <time>2025-05-18T06:43:54.000Z</time>
      </trkpt>
      <trkpt lat="43.62916" lon="6.22407">
        <ele>510.5</ele>
        <time>2025-05-18T06:44:02.000Z</time>
      </trkpt>
      <trkpt lat="43.62908" lon="6.22414">
        <ele>510.5</ele>
        <time>2025-05-18T06:44:09.000Z</time>
      </trkpt>
      <trkpt lat="43.62897" lon="6.22413">
        <ele>510.4</ele>
        <time>2025-05-18T06:44:16.000Z</time>
      </trkpt>
      <trkpt lat="43.62889" lon="6.22402">
        <ele>510.4</ele>
        <time>2025-05-18T06:44:20.000Z</time>
      </trkpt>
      <trkpt lat="43.62886" lon="6.22415">
        <ele>510.2</ele>
        <time>2025-05-18T06:44:29.000Z</time>
      </trkpt>
      <trkpt lat="43.62895" lon="6.2242">
        <ele>510.3</ele>
        <time>2025-05-18T06:44:46.000Z</time>
      </trkpt>
      <trkpt lat="43.62899" lon="6.22433">
        <ele>510.8</ele>
        <time>2025-05-18T06:44:53.000Z</time>
      </trkpt>
      <trkpt lat="43.62898" lon="6.22447">
        <ele>511.6</ele>
        <time>2025-05-18T06:44:59.000Z</time>
      </trkpt>
      <trkpt lat="43.62897" lon="6.22461">
        <ele>512.5</ele>
        <time>2025-05-18T06:45:05.000Z</time>
      </trkpt>
      <trkpt lat="43.62906" lon="6.22462">
        <ele>513.5</ele>
        <time>2025-05-18T06:45:12.000Z</time>
      </trkpt>
      <trkpt lat="43.62901" lon="6.22474">
        <ele>514.6</ele>
        <time>2025-05-18T06:45:19.000Z</time>
      </trkpt>
      <trkpt lat="43.6291" lon="6.22478">
        <ele>515.8</ele>
        <time>2025-05-18T06:45:27.000Z</time>
      </trkpt>
      <trkpt lat="43.6292" lon="6.22479">
        <ele>516.8</ele>
        <time>2025-05-18T06:45:34.000Z</time>
      </trkpt>
      <trkpt lat="43.62926" lon="6.2247">
        <ele>518.5</ele>
        <time>2025-05-18T06:45:44.000Z</time>
      </trkpt>
      <trkpt lat="43.62935" lon="6.22473">
        <ele>520.6</ele>
        <time>2025-05-18T06:46:03.000Z</time>
      </trkpt>
      <trkpt lat="43.62944" lon="6.22478">
        <ele>522.4</ele>
        <time>2025-05-18T06:46:17.000Z</time>
      </trkpt>
      <trkpt lat="43.62948" lon="6.22489">
        <ele>524.3</ele>
        <time>2025-05-18T06:46:30.000Z</time>
      </trkpt>
      <trkpt lat="43.62951" lon="6.225">
        <ele>524.5</ele>
        <time>2025-05-18T06:46:44.000Z</time>
      </trkpt>
      <trkpt lat="43.62951" lon="6.225">
        <ele>524.5</ele>
        <time>2025-05-18T06:46:45.000Z</time>
      </trkpt>
      <trkpt lat="43.6295" lon="6.225">
        <ele>524.5</ele>
        <time>2025-05-18T06:46:46.000Z</time>
      </trkpt>
      <trkpt lat="43.62949" lon="6.22503">
        <ele>524.4</ele>
        <time>2025-05-18T06:46:49.000Z</time>
      </trkpt>
      <trkpt lat="43.62948" lon="6.22504">
        <ele>524.4</ele>
        <time>2025-05-18T06:46:50.000Z</time>
      </trkpt>
      <trkpt lat="43.62951" lon="6.22515">
        <ele>524.2</ele>
        <time>2025-05-18T06:47:02.000Z</time>
      </trkpt>
      <trkpt lat="43.62957" lon="6.22504">
        <ele>523.9</ele>
        <time>2025-05-18T06:47:17.000Z</time>
      </trkpt>
      <trkpt lat="43.62965" lon="6.22499">
        <ele>523.9</ele>
        <time>2025-05-18T06:47:28.000Z</time>
      </trkpt>
      <trkpt lat="43.62975" lon="6.22495">
        <ele>524</ele>
        <time>2025-05-18T06:47:37.000Z</time>
      </trkpt>
      <trkpt lat="43.62984" lon="6.22491">
        <ele>524.3</ele>
        <time>2025-05-18T06:47:46.000Z</time>
      </trkpt>
      <trkpt lat="43.62993" lon="6.22487">
        <ele>524.4</ele>
        <time>2025-05-18T06:47:53.000Z</time>
      </trkpt>
      <trkpt lat="43.63002" lon="6.2249">
        <ele>524.4</ele>
        <time>2025-05-18T06:48:03.000Z</time>
      </trkpt>
      <trkpt lat="43.6301" lon="6.22497">
        <ele>524.4</ele>
        <time>2025-05-18T06:48:11.000Z</time>
      </trkpt>
      <trkpt lat="43.63015" lon="6.22509">
        <ele>524.3</ele>
        <time>2025-05-18T06:48:22.000Z</time>
      </trkpt>
      <trkpt lat="43.63023" lon="6.22516">
        <ele>524.3</ele>
        <time>2025-05-18T06:48:31.000Z</time>
      </trkpt>
      <trkpt lat="43.63032" lon="6.22512">
        <ele>524.3</ele>
        <time>2025-05-18T06:48:41.000Z</time>
      </trkpt>
      <trkpt lat="43.63041" lon="6.22516">
        <ele>524.2</ele>
        <time>2025-05-18T06:48:48.000Z</time>
      </trkpt>
      <trkpt lat="43.6305" lon="6.22514">
        <ele>524.1</ele>
        <time>2025-05-18T06:48:56.000Z</time>
      </trkpt>
      <trkpt lat="43.63059" lon="6.22513">
        <ele>524.1</ele>
        <time>2025-05-18T06:49:04.000Z</time>
      </trkpt>
      <trkpt lat="43.63068" lon="6.22514">
        <ele>524</ele>
        <time>2025-05-18T06:49:11.000Z</time>
      </trkpt>
      <trkpt lat="43.63078" lon="6.22515">
        <ele>524.1</ele>
        <time>2025-05-18T06:49:19.000Z</time>
      </trkpt>
      <trkpt lat="43.63088" lon="6.22517">
        <ele>524.1</ele>
        <time>2025-05-18T06:49:27.000Z</time>
      </trkpt>
      <trkpt lat="43.63097" lon="6.22516">
        <ele>524.2</ele>
        <time>2025-05-18T06:49:36.000Z</time>
      </trkpt>
      <trkpt lat="43.63107" lon="6.22517">
        <ele>524.4</ele>
        <time>2025-05-18T06:49:44.000Z</time>
      </trkpt>
      <trkpt lat="43.63117" lon="6.22516">
        <ele>524.7</ele>
        <time>2025-05-18T06:49:53.000Z</time>
      </trkpt>
      <trkpt lat="43.63125" lon="6.22509">
        <ele>525.5</ele>
        <time>2025-05-18T06:50:03.000Z</time>
      </trkpt>
      <trkpt lat="43.63134" lon="6.22503">
        <ele>526.4</ele>
        <time>2025-05-18T06:50:11.000Z</time>
      </trkpt>
      <trkpt lat="43.63143" lon="6.22498">
        <ele>527</ele>
        <time>2025-05-18T06:50:18.000Z</time>
      </trkpt>
      <trkpt lat="43.63151" lon="6.22493">
        <ele>527.9</ele>
        <time>2025-05-18T06:50:29.000Z</time>
      </trkpt>
      <trkpt lat="43.6316" lon="6.2249">
        <ele>528.5</ele>
        <time>2025-05-18T06:50:36.000Z</time>
      </trkpt>
      <trkpt lat="43.63169" lon="6.22483">
        <ele>529</ele>
        <time>2025-05-18T06:50:44.000Z</time>
      </trkpt>
      <trkpt lat="43.63177" lon="6.22478">
        <ele>529.9</ele>
        <time>2025-05-18T06:50:55.000Z</time>
      </trkpt>
      <trkpt lat="43.63186" lon="6.22472">
        <ele>530.4</ele>
        <time>2025-05-18T06:51:02.000Z</time>
      </trkpt>
      <trkpt lat="43.63195" lon="6.2247">
        <ele>530.7</ele>
        <time>2025-05-18T06:51:10.000Z</time>
      </trkpt>
      <trkpt lat="43.63204" lon="6.22468">
        <ele>531.5</ele>
        <time>2025-05-18T06:51:19.000Z</time>
      </trkpt>
      <trkpt lat="43.63212" lon="6.2246">
        <ele>532.2</ele>
        <time>2025-05-18T06:51:27.000Z</time>
      </trkpt>
      <trkpt lat="43.63221" lon="6.22455">
        <ele>533</ele>
        <time>2025-05-18T06:51:37.000Z</time>
      </trkpt>
      <trkpt lat="43.63231" lon="6.22453">
        <ele>533.6</ele>
        <time>2025-05-18T06:51:45.000Z</time>
      </trkpt>
      <trkpt lat="43.63241" lon="6.22451">
        <ele>534</ele>
        <time>2025-05-18T06:51:54.000Z</time>
      </trkpt>
      <trkpt lat="43.63251" lon="6.22452">
        <ele>534.7</ele>
        <time>2025-05-18T06:52:04.000Z</time>
      </trkpt>
      <trkpt lat="43.6326" lon="6.22451">
        <ele>535.5</ele>
        <time>2025-05-18T06:52:14.000Z</time>
      </trkpt>
      <trkpt lat="43.6327" lon="6.22455">
        <ele>535.9</ele>
        <time>2025-05-18T06:52:23.000Z</time>
      </trkpt>
      <trkpt lat="43.63278" lon="6.22462">
        <ele>536.5</ele>
        <time>2025-05-18T06:52:32.000Z</time>
      </trkpt>
      <trkpt lat="43.63287" lon="6.22468">
        <ele>537.3</ele>
        <time>2025-05-18T06:52:41.000Z</time>
      </trkpt>
      <trkpt lat="43.63296" lon="6.22469">
        <ele>538</ele>
        <time>2025-05-18T06:52:49.000Z</time>
      </trkpt>
      <trkpt lat="43.63305" lon="6.22471">
        <ele>539.1</ele>
        <time>2025-05-18T06:52:58.000Z</time>
      </trkpt>
      <trkpt lat="43.63313" lon="6.22479">
        <ele>540</ele>
        <time>2025-05-18T06:53:07.000Z</time>
      </trkpt>
      <trkpt lat="43.63321" lon="6.22484">
        <ele>540.9</ele>
        <time>2025-05-18T06:53:17.000Z</time>
      </trkpt>
      <trkpt lat="43.63329" lon="6.22492">
        <ele>542.6</ele>
        <time>2025-05-18T06:53:28.000Z</time>
      </trkpt>
      <trkpt lat="43.63336" lon="6.22501">
        <ele>544.1</ele>
        <time>2025-05-18T06:53:38.000Z</time>
      </trkpt>
      <trkpt lat="43.63343" lon="6.22511">
        <ele>545.5</ele>
        <time>2025-05-18T06:53:48.000Z</time>
      </trkpt>
      <trkpt lat="43.63352" lon="6.22509">
        <ele>546.3</ele>
        <time>2025-05-18T06:53:56.000Z</time>
      </trkpt>
      <trkpt lat="43.63362" lon="6.22508">
        <ele>547.3</ele>
        <time>2025-05-18T06:54:05.000Z</time>
      </trkpt>
      <trkpt lat="43.63371" lon="6.22509">
        <ele>548.2</ele>
        <time>2025-05-18T06:54:14.000Z</time>
      </trkpt>
      <trkpt lat="43.6338" lon="6.22506">
        <ele>549.2</ele>
        <time>2025-05-18T06:54:23.000Z</time>
      </trkpt>
      <trkpt lat="43.63371" lon="6.22507">
        <ele>550.9</ele>
        <time>2025-05-18T06:54:54.000Z</time>
      </trkpt>
      <trkpt lat="43.63363" lon="6.22512">
        <ele>552</ele>
        <time>2025-05-18T06:55:05.000Z</time>
      </trkpt>
      <trkpt lat="43.63357" lon="6.22523">
        <ele>553.5</ele>
        <time>2025-05-18T06:55:16.000Z</time>
      </trkpt>
      <trkpt lat="43.63354" lon="6.22536">
        <ele>554.4</ele>
        <time>2025-05-18T06:55:24.000Z</time>
      </trkpt>
      <trkpt lat="43.63348" lon="6.22546">
        <ele>555.8</ele>
        <time>2025-05-18T06:55:36.000Z</time>
      </trkpt>
      <trkpt lat="43.63347" lon="6.22559">
        <ele>557.5</ele>
        <time>2025-05-18T06:55:46.000Z</time>
      </trkpt>
      <trkpt lat="43.6335" lon="6.22572">
        <ele>558.5</ele>
        <time>2025-05-18T06:55:53.000Z</time>
      </trkpt>
      <trkpt lat="43.63351" lon="6.22584">
        <ele>559.3</ele>
        <time>2025-05-18T06:56:02.000Z</time>
      </trkpt>
      <trkpt lat="43.63357" lon="6.22594">
        <ele>560.1</ele>
        <time>2025-05-18T06:56:10.000Z</time>
      </trkpt>
      <trkpt lat="43.63357" lon="6.22608">
        <ele>561.3</ele>
        <time>2025-05-18T06:56:20.000Z</time>
      </trkpt>
      <trkpt lat="43.63361" lon="6.22619">
        <ele>562.4</ele>
        <time>2025-05-18T06:56:30.000Z</time>
      </trkpt>
      <trkpt lat="43.63365" lon="6.22632">
        <ele>563.3</ele>
        <time>2025-05-18T06:56:38.000Z</time>
      </trkpt>
      <trkpt lat="43.63371" lon="6.22643">
        <ele>564.3</ele>
        <time>2025-05-18T06:56:48.000Z</time>
      </trkpt>
      <trkpt lat="43.63377" lon="6.22653">
        <ele>565.3</ele>
        <time>2025-05-18T06:56:58.000Z</time>
      </trkpt>
      <trkpt lat="43.63382" lon="6.22665">
        <ele>566.2</ele>
        <time>2025-05-18T06:57:06.000Z</time>
      </trkpt>
      <trkpt lat="43.63388" lon="6.22675">
        <ele>567</ele>
        <time>2025-05-18T06:57:15.000Z</time>
      </trkpt>
      <trkpt lat="43.63391" lon="6.22688">
        <ele>567.9</ele>
        <time>2025-05-18T06:57:23.000Z</time>
      </trkpt>
      <trkpt lat="43.63393" lon="6.227">
        <ele>569.1</ele>
        <time>2025-05-18T06:57:33.000Z</time>
      </trkpt>
      <trkpt lat="43.63394" lon="6.22714">
        <ele>569.9</ele>
        <time>2025-05-18T06:57:43.000Z</time>
      </trkpt>
      <trkpt lat="43.63395" lon="6.22727">
        <ele>570.7</ele>
        <time>2025-05-18T06:57:51.000Z</time>
      </trkpt>
      <trkpt lat="43.63396" lon="6.2274">
        <ele>571.8</ele>
        <time>2025-05-18T06:58:01.000Z</time>
      </trkpt>
      <trkpt lat="43.63398" lon="6.22753">
        <ele>573.5</ele>
        <time>2025-05-18T06:58:26.000Z</time>
      </trkpt>
      <trkpt lat="43.634" lon="6.22767">
        <ele>573.8</ele>
        <time>2025-05-18T07:00:48.000Z</time>
      </trkpt>
      <trkpt lat="43.63405" lon="6.22778">
        <ele>574.2</ele>
        <time>2025-05-18T07:00:57.000Z</time>
      </trkpt>
      <trkpt lat="43.6341" lon="6.22788">
        <ele>574.7</ele>
        <time>2025-05-18T07:01:06.000Z</time>
      </trkpt>
      <trkpt lat="43.63415" lon="6.228">
        <ele>575.2</ele>
        <time>2025-05-18T07:01:16.000Z</time>
      </trkpt>
      <trkpt lat="43.63421" lon="6.2281">
        <ele>575.9</ele>
        <time>2025-05-18T07:01:24.000Z</time>
      </trkpt>
      <trkpt lat="43.63429" lon="6.22818">
        <ele>576.6</ele>
        <time>2025-05-18T07:01:32.000Z</time>
      </trkpt>
      <trkpt lat="43.63436" lon="6.22828">
        <ele>577.9</ele>
        <time>2025-05-18T07:01:42.000Z</time>
      </trkpt>
      <trkpt lat="43.63443" lon="6.22837">
        <ele>579</ele>
        <time>2025-05-18T07:01:52.000Z</time>
      </trkpt>
      <trkpt lat="43.63448" lon="6.22847">
        <ele>579.7</ele>
        <time>2025-05-18T07:02:01.000Z</time>
      </trkpt>
      <trkpt lat="43.63452" lon="6.2286">
        <ele>580.4</ele>
        <time>2025-05-18T07:02:10.000Z</time>
      </trkpt>
      <trkpt lat="43.63459" lon="6.22868">
        <ele>581.5</ele>
        <time>2025-05-18T07:02:21.000Z</time>
      </trkpt>
      <trkpt lat="43.63464" lon="6.2288">
        <ele>582.4</ele>
        <time>2025-05-18T07:02:28.000Z</time>
      </trkpt>
      <trkpt lat="43.6347" lon="6.22891">
        <ele>582.8</ele>
        <time>2025-05-18T07:02:36.000Z</time>
      </trkpt>
      <trkpt lat="43.63479" lon="6.22894">
        <ele>583</ele>
        <time>2025-05-18T07:02:46.000Z</time>
      </trkpt>
      <trkpt lat="43.63488" lon="6.22899">
        <ele>583.4</ele>
        <time>2025-05-18T07:02:53.000Z</time>
      </trkpt>
      <trkpt lat="43.63497" lon="6.22906">
        <ele>584.2</ele>
        <time>2025-05-18T07:03:00.000Z</time>
      </trkpt>
      <trkpt lat="43.63505" lon="6.22913">
        <ele>584.9</ele>
        <time>2025-05-18T07:03:10.000Z</time>
      </trkpt>
      <trkpt lat="43.63511" lon="6.22922">
        <ele>585.2</ele>
        <time>2025-05-18T07:03:19.000Z</time>
      </trkpt>
      <trkpt lat="43.63519" lon="6.22929">
        <ele>585.6</ele>
        <time>2025-05-18T07:03:27.000Z</time>
      </trkpt>
      <trkpt lat="43.63526" lon="6.22939">
        <ele>586.2</ele>
        <time>2025-05-18T07:03:35.000Z</time>
      </trkpt>
      <trkpt lat="43.63534" lon="6.22947">
        <ele>586.8</ele>
        <time>2025-05-18T07:03:43.000Z</time>
      </trkpt>
      <trkpt lat="43.6354" lon="6.22958">
        <ele>587.3</ele>
        <time>2025-05-18T07:03:51.000Z</time>
      </trkpt>
      <trkpt lat="43.63544" lon="6.2297">
        <ele>588.1</ele>
        <time>2025-05-18T07:03:59.000Z</time>
      </trkpt>
      <trkpt lat="43.63553" lon="6.22972">
        <ele>588.7</ele>
        <time>2025-05-18T07:04:07.000Z</time>
      </trkpt>
      <trkpt lat="43.63562" lon="6.22977">
        <ele>589.6</ele>
        <time>2025-05-18T07:04:17.000Z</time>
      </trkpt>
      <trkpt lat="43.63573" lon="6.22979">
        <ele>590.5</ele>
        <time>2025-05-18T07:04:27.000Z</time>
      </trkpt>
      <trkpt lat="43.63582" lon="6.22982">
        <ele>591.1</ele>
        <time>2025-05-18T07:04:36.000Z</time>
      </trkpt>
      <trkpt lat="43.63591" lon="6.22987">
        <ele>591.6</ele>
        <time>2025-05-18T07:04:42.000Z</time>
      </trkpt>
      <trkpt lat="43.63599" lon="6.22993">
        <ele>592.2</ele>
        <time>2025-05-18T07:04:50.000Z</time>
      </trkpt>
      <trkpt lat="43.63608" lon="6.22997">
        <ele>593.2</ele>
        <time>2025-05-18T07:05:02.000Z</time>
      </trkpt>
      <trkpt lat="43.63617" lon="6.22999">
        <ele>594</ele>
        <time>2025-05-18T07:05:10.000Z</time>
      </trkpt>
      <trkpt lat="43.63623" lon="6.23008">
        <ele>594.6</ele>
        <time>2025-05-18T07:05:17.000Z</time>
      </trkpt>
      <trkpt lat="43.63633" lon="6.2301">
        <ele>595</ele>
        <time>2025-05-18T07:05:25.000Z</time>
      </trkpt>
      <trkpt lat="43.63641" lon="6.23017">
        <ele>596.1</ele>
        <time>2025-05-18T07:05:37.000Z</time>
      </trkpt>
      <trkpt lat="43.6365" lon="6.23023">
        <ele>596.7</ele>
        <time>2025-05-18T07:05:45.000Z</time>
      </trkpt>
      <trkpt lat="43.63659" lon="6.23028">
        <ele>597.4</ele>
        <time>2025-05-18T07:05:52.000Z</time>
      </trkpt>
      <trkpt lat="43.63666" lon="6.23036">
        <ele>598.9</ele>
        <time>2025-05-18T07:06:03.000Z</time>
      </trkpt>
      <trkpt lat="43.63673" lon="6.23044">
        <ele>599.8</ele>
        <time>2025-05-18T07:06:14.000Z</time>
      </trkpt>
      <trkpt lat="43.63682" lon="6.2305">
        <ele>600.8</ele>
        <time>2025-05-18T07:06:24.000Z</time>
      </trkpt>
      <trkpt lat="43.63691" lon="6.23054">
        <ele>601.5</ele>
        <time>2025-05-18T07:06:33.000Z</time>
      </trkpt>
      <trkpt lat="43.637" lon="6.23057">
        <ele>602.1</ele>
        <time>2025-05-18T07:06:41.000Z</time>
      </trkpt>
      <trkpt lat="43.63707" lon="6.23067">
        <ele>602.6</ele>
        <time>2025-05-18T07:06:50.000Z</time>
      </trkpt>
      <trkpt lat="43.63715" lon="6.23073">
        <ele>602.7</ele>
        <time>2025-05-18T07:06:55.000Z</time>
      </trkpt>
      <trkpt lat="43.63724" lon="6.23076">
        <ele>603.3</ele>
        <time>2025-05-18T07:07:05.000Z</time>
      </trkpt>
      <trkpt lat="43.63734" lon="6.23079">
        <ele>603.8</ele>
        <time>2025-05-18T07:07:14.000Z</time>
      </trkpt>
      <trkpt lat="43.63744" lon="6.2308">
        <ele>604.1</ele>
        <time>2025-05-18T07:07:22.000Z</time>
      </trkpt>
      <trkpt lat="43.63753" lon="6.23081">
        <ele>604.5</ele>
        <time>2025-05-18T07:07:31.000Z</time>
      </trkpt>
      <trkpt lat="43.63763" lon="6.23083">
        <ele>604.8</ele>
        <time>2025-05-18T07:07:39.000Z</time>
      </trkpt>
      <trkpt lat="43.63772" lon="6.23082">
        <ele>605.1</ele>
        <time>2025-05-18T07:07:47.000Z</time>
      </trkpt>
      <trkpt lat="43.63782" lon="6.23083">
        <ele>605.5</ele>
        <time>2025-05-18T07:07:56.000Z</time>
      </trkpt>
      <trkpt lat="43.63791" lon="6.23085">
        <ele>605.9</ele>
        <time>2025-05-18T07:08:04.000Z</time>
      </trkpt>
      <trkpt lat="43.63801" lon="6.23089">
        <ele>606.1</ele>
        <time>2025-05-18T07:08:12.000Z</time>
      </trkpt>
      <trkpt lat="43.63809" lon="6.23095">
        <ele>606.3</ele>
        <time>2025-05-18T07:08:19.000Z</time>
      </trkpt>
      <trkpt lat="43.63818" lon="6.231">
        <ele>606.6</ele>
        <time>2025-05-18T07:08:28.000Z</time>
      </trkpt>
      <trkpt lat="43.63827" lon="6.23101">
        <ele>606.8</ele>
        <time>2025-05-18T07:08:36.000Z</time>
      </trkpt>
      <trkpt lat="43.63837" lon="6.23103">
        <ele>607</ele>
        <time>2025-05-18T07:08:43.000Z</time>
      </trkpt>
      <trkpt lat="43.63846" lon="6.23103">
        <ele>607.2</ele>
        <time>2025-05-18T07:08:49.000Z</time>
      </trkpt>
      <trkpt lat="43.63855" lon="6.23108">
        <ele>607.2</ele>
        <time>2025-05-18T07:08:57.000Z</time>
      </trkpt>
      <trkpt lat="43.63864" lon="6.2311">
        <ele>607.2</ele>
        <time>2025-05-18T07:09:06.000Z</time>
      </trkpt>
      <trkpt lat="43.63873" lon="6.23112">
        <ele>607.1</ele>
        <time>2025-05-18T07:09:13.000Z</time>
      </trkpt>
      <trkpt lat="43.63883" lon="6.23113">
        <ele>607.2</ele>
        <time>2025-05-18T07:09:20.000Z</time>
      </trkpt>
      <trkpt lat="43.63892" lon="6.23111">
        <ele>607.3</ele>
        <time>2025-05-18T07:09:28.000Z</time>
      </trkpt>
      <trkpt lat="43.63901" lon="6.23108">
        <ele>607.5</ele>
        <time>2025-05-18T07:09:38.000Z</time>
      </trkpt>
      <trkpt lat="43.6391" lon="6.2311">
        <ele>607.8</ele>
        <time>2025-05-18T07:09:45.000Z</time>
      </trkpt>
      <trkpt lat="43.6392" lon="6.2311">
        <ele>608.6</ele>
        <time>2025-05-18T07:09:53.000Z</time>
      </trkpt>
      <trkpt lat="43.6393" lon="6.23112">
        <ele>609.4</ele>
        <time>2025-05-18T07:10:01.000Z</time>
      </trkpt>
      <trkpt lat="43.63939" lon="6.23115">
        <ele>609.9</ele>
        <time>2025-05-18T07:10:13.000Z</time>
      </trkpt>
      <trkpt lat="43.63948" lon="6.23115">
        <ele>610.1</ele>
        <time>2025-05-18T07:10:20.000Z</time>
      </trkpt>
      <trkpt lat="43.63957" lon="6.23119">
        <ele>610.5</ele>
        <time>2025-05-18T07:10:29.000Z</time>
      </trkpt>
      <trkpt lat="43.63966" lon="6.23119">
        <ele>610.7</ele>
        <time>2025-05-18T07:10:36.000Z</time>
      </trkpt>
      <trkpt lat="43.63975" lon="6.23125">
        <ele>610.9</ele>
        <time>2025-05-18T07:10:44.000Z</time>
      </trkpt>
      <trkpt lat="43.63984" lon="6.23129">
        <ele>611</ele>
        <time>2025-05-18T07:10:52.000Z</time>
      </trkpt>
      <trkpt lat="43.63993" lon="6.23129">
        <ele>610.9</ele>
        <time>2025-05-18T07:10:59.000Z</time>
      </trkpt>
      <trkpt lat="43.64002" lon="6.23133">
        <ele>610.9</ele>
        <time>2025-05-18T07:11:06.000Z</time>
      </trkpt>
      <trkpt lat="43.64011" lon="6.23134">
        <ele>610.9</ele>
        <time>2025-05-18T07:11:13.000Z</time>
      </trkpt>
      <trkpt lat="43.6402" lon="6.23137">
        <ele>610.9</ele>
        <time>2025-05-18T07:11:23.000Z</time>
      </trkpt>
      <trkpt lat="43.64029" lon="6.2314">
        <ele>611</ele>
        <time>2025-05-18T07:11:30.000Z</time>
      </trkpt>
      <trkpt lat="43.64039" lon="6.23144">
        <ele>611.2</ele>
        <time>2025-05-18T07:11:41.000Z</time>
      </trkpt>
      <trkpt lat="43.64048" lon="6.23147">
        <ele>611.3</ele>
        <time>2025-05-18T07:11:46.000Z</time>
      </trkpt>
      <trkpt lat="43.64057" lon="6.23151">
        <ele>612.1</ele>
        <time>2025-05-18T07:11:55.000Z</time>
      </trkpt>
      <trkpt lat="43.64066" lon="6.23158">
        <ele>612.8</ele>
        <time>2025-05-18T07:12:05.000Z</time>
      </trkpt>
      <trkpt lat="43.64074" lon="6.23163">
        <ele>613.4</ele>
        <time>2025-05-18T07:12:13.000Z</time>
      </trkpt>
      <trkpt lat="43.64083" lon="6.23165">
        <ele>614</ele>
        <time>2025-05-18T07:12:21.000Z</time>
      </trkpt>
      <trkpt lat="43.64092" lon="6.23168">
        <ele>614.6</ele>
        <time>2025-05-18T07:12:29.000Z</time>
      </trkpt>
      <trkpt lat="43.64101" lon="6.23175">
        <ele>614.8</ele>
        <time>2025-05-18T07:12:39.000Z</time>
      </trkpt>
      <trkpt lat="43.64111" lon="6.23177">
        <ele>615</ele>
        <time>2025-05-18T07:12:46.000Z</time>
      </trkpt>
      <trkpt lat="43.6412" lon="6.23173">
        <ele>615.3</ele>
        <time>2025-05-18T07:12:55.000Z</time>
      </trkpt>
      <trkpt lat="43.64129" lon="6.23177">
        <ele>616.1</ele>
        <time>2025-05-18T07:13:06.000Z</time>
      </trkpt>
      <trkpt lat="43.64138" lon="6.23184">
        <ele>617.1</ele>
        <time>2025-05-18T07:13:14.000Z</time>
      </trkpt>
      <trkpt lat="43.64145" lon="6.23192">
        <ele>617.6</ele>
        <time>2025-05-18T07:13:22.000Z</time>
      </trkpt>
      <trkpt lat="43.64151" lon="6.23203">
        <ele>617.9</ele>
        <time>2025-05-18T07:13:30.000Z</time>
      </trkpt>
      <trkpt lat="43.64156" lon="6.23214">
        <ele>618.6</ele>
        <time>2025-05-18T07:13:39.000Z</time>
      </trkpt>
      <trkpt lat="43.64165" lon="6.23219">
        <ele>619.6</ele>
        <time>2025-05-18T07:13:50.000Z</time>
      </trkpt>
      <trkpt lat="43.64155" lon="6.23216">
        <ele>621.4</ele>
        <time>2025-05-18T07:18:42.000Z</time>
      </trkpt>
      <trkpt lat="43.64148" lon="6.23207">
        <ele>621.3</ele>
        <time>2025-05-18T07:18:50.000Z</time>
      </trkpt>
      <trkpt lat="43.6414" lon="6.23202">
        <ele>621.2</ele>
        <time>2025-05-18T07:18:56.000Z</time>
      </trkpt>
      <trkpt lat="43.6413" lon="6.23196">
        <ele>621</ele>
        <time>2025-05-18T07:19:04.000Z</time>
      </trkpt>
      <trkpt lat="43.64121" lon="6.23194">
        <ele>620.8</ele>
        <time>2025-05-18T07:19:11.000Z</time>
      </trkpt>
      <trkpt lat="43.64111" lon="6.23194">
        <ele>620.7</ele>
        <time>2025-05-18T07:19:18.000Z</time>
      </trkpt>
      <trkpt lat="43.64102" lon="6.23198">
        <ele>620.7</ele>
        <time>2025-05-18T07:19:25.000Z</time>
      </trkpt>
      <trkpt lat="43.64092" lon="6.23203">
        <ele>620.7</ele>
        <time>2025-05-18T07:19:34.000Z</time>
      </trkpt>
      <trkpt lat="43.64084" lon="6.23208">
        <ele>620.9</ele>
        <time>2025-05-18T07:19:44.000Z</time>
      </trkpt>
      <trkpt lat="43.64074" lon="6.2321">
        <ele>621</ele>
        <time>2025-05-18T07:19:51.000Z</time>
      </trkpt>
      <trkpt lat="43.64065" lon="6.23214">
        <ele>621.3</ele>
        <time>2025-05-18T07:19:59.000Z</time>
      </trkpt>
      <trkpt lat="43.64056" lon="6.23213">
        <ele>621.5</ele>
        <time>2025-05-18T07:20:05.000Z</time>
      </trkpt>
      <trkpt lat="43.64047" lon="6.2321">
        <ele>621.7</ele>
        <time>2025-05-18T07:20:12.000Z</time>
      </trkpt>
      <trkpt lat="43.64037" lon="6.23213">
        <ele>621.9</ele>
        <time>2025-05-18T07:20:21.000Z</time>
      </trkpt>
      <trkpt lat="43.64028" lon="6.2321">
        <ele>622.1</ele>
        <time>2025-05-18T07:20:29.000Z</time>
      </trkpt>
      <trkpt lat="43.64019" lon="6.23213">
        <ele>622</ele>
        <time>2025-05-18T07:20:39.000Z</time>
      </trkpt>
      <trkpt lat="43.64009" lon="6.2321">
        <ele>622</ele>
        <time>2025-05-18T07:20:47.000Z</time>
      </trkpt>
      <trkpt lat="43.64001" lon="6.23206">
        <ele>622</ele>
        <time>2025-05-18T07:20:54.000Z</time>
      </trkpt>
      <trkpt lat="43.63992" lon="6.23203">
        <ele>621.9</ele>
        <time>2025-05-18T07:21:06.000Z</time>
      </trkpt>
      <trkpt lat="43.63982" lon="6.23205">
        <ele>621.8</ele>
        <time>2025-05-18T07:21:16.000Z</time>
      </trkpt>
      <trkpt lat="43.63973" lon="6.232">
        <ele>621.5</ele>
        <time>2025-05-18T07:21:23.000Z</time>
      </trkpt>
      <trkpt lat="43.63964" lon="6.23193">
        <ele>621.2</ele>
        <time>2025-05-18T07:21:32.000Z</time>
      </trkpt>
      <trkpt lat="43.63956" lon="6.23186">
        <ele>621</ele>
        <time>2025-05-18T07:21:39.000Z</time>
      </trkpt>
      <trkpt lat="43.63947" lon="6.23184">
        <ele>620.9</ele>
        <time>2025-05-18T07:21:46.000Z</time>
      </trkpt>
      <trkpt lat="43.63937" lon="6.23185">
        <ele>620.8</ele>
        <time>2025-05-18T07:21:52.000Z</time>
      </trkpt>
      <trkpt lat="43.63927" lon="6.23185">
        <ele>620.6</ele>
        <time>2025-05-18T07:21:59.000Z</time>
      </trkpt>
      <trkpt lat="43.63918" lon="6.23182">
        <ele>620.4</ele>
        <time>2025-05-18T07:22:08.000Z</time>
      </trkpt>
      <trkpt lat="43.63908" lon="6.23183">
        <ele>620.2</ele>
        <time>2025-05-18T07:22:17.000Z</time>
      </trkpt>
      <trkpt lat="43.63899" lon="6.23179">
        <ele>620</ele>
        <time>2025-05-18T07:22:25.000Z</time>
      </trkpt>
      <trkpt lat="43.63889" lon="6.23183">
        <ele>619.8</ele>
        <time>2025-05-18T07:22:33.000Z</time>
      </trkpt>
      <trkpt lat="43.63879" lon="6.23187">
        <ele>619.9</ele>
        <time>2025-05-18T07:22:42.000Z</time>
      </trkpt>
      <trkpt lat="43.6387" lon="6.23192">
        <ele>620</ele>
        <time>2025-05-18T07:22:56.000Z</time>
      </trkpt>
      <trkpt lat="43.6386" lon="6.23194">
        <ele>620.1</ele>
        <time>2025-05-18T07:23:04.000Z</time>
      </trkpt>
      <trkpt lat="43.63851" lon="6.23197">
        <ele>620.3</ele>
        <time>2025-05-18T07:23:13.000Z</time>
      </trkpt>
      <trkpt lat="43.63842" lon="6.23197">
        <ele>620.5</ele>
        <time>2025-05-18T07:23:20.000Z</time>
      </trkpt>
      <trkpt lat="43.63833" lon="6.232">
        <ele>620.7</ele>
        <time>2025-05-18T07:23:28.000Z</time>
      </trkpt>
      <trkpt lat="43.63824" lon="6.232">
        <ele>621.1</ele>
        <time>2025-05-18T07:23:37.000Z</time>
      </trkpt>
      <trkpt lat="43.63814" lon="6.23201">
        <ele>621.6</ele>
        <time>2025-05-18T07:23:48.000Z</time>
      </trkpt>
      <trkpt lat="43.63805" lon="6.232">
        <ele>621.9</ele>
        <time>2025-05-18T07:23:56.000Z</time>
      </trkpt>
      <trkpt lat="43.63796" lon="6.23202">
        <ele>622</ele>
        <time>2025-05-18T07:24:04.000Z</time>
      </trkpt>
      <trkpt lat="43.63786" lon="6.23201">
        <ele>622.1</ele>
        <time>2025-05-18T07:24:12.000Z</time>
      </trkpt>
      <trkpt lat="43.63776" lon="6.23202">
        <ele>622.2</ele>
        <time>2025-05-18T07:24:21.000Z</time>
      </trkpt>
      <trkpt lat="43.63767" lon="6.23203">
        <ele>622.3</ele>
        <time>2025-05-18T07:24:28.000Z</time>
      </trkpt>
      <trkpt lat="43.63757" lon="6.23206">
        <ele>622.4</ele>
        <time>2025-05-18T07:24:37.000Z</time>
      </trkpt>
      <trkpt lat="43.63748" lon="6.23206">
        <ele>622.5</ele>
        <time>2025-05-18T07:24:47.000Z</time>
      </trkpt>
      <trkpt lat="43.63738" lon="6.23205">
        <ele>622.6</ele>
        <time>2025-05-18T07:24:54.000Z</time>
      </trkpt>
      <trkpt lat="43.63729" lon="6.23204">
        <ele>622.7</ele>
        <time>2025-05-18T07:25:03.000Z</time>
      </trkpt>
      <trkpt lat="43.63719" lon="6.23202">
        <ele>622.8</ele>
        <time>2025-05-18T07:25:11.000Z</time>
      </trkpt>
      <trkpt lat="43.6371" lon="6.23201">
        <ele>622.9</ele>
        <time>2025-05-18T07:25:18.000Z</time>
      </trkpt>
      <trkpt lat="43.63701" lon="6.23208">
        <ele>623.2</ele>
        <time>2025-05-18T07:25:26.000Z</time>
      </trkpt>
      <trkpt lat="43.63695" lon="6.23219">
        <ele>623.8</ele>
        <time>2025-05-18T07:25:34.000Z</time>
      </trkpt>
      <trkpt lat="43.6369" lon="6.2323">
        <ele>624.6</ele>
        <time>2025-05-18T07:25:42.000Z</time>
      </trkpt>
      <trkpt lat="43.63684" lon="6.2324">
        <ele>626</ele>
        <time>2025-05-18T07:25:54.000Z</time>
      </trkpt>
      <trkpt lat="43.63678" lon="6.2325">
        <ele>626.8</ele>
        <time>2025-05-18T07:26:03.000Z</time>
      </trkpt>
      <trkpt lat="43.63671" lon="6.23259">
        <ele>627.5</ele>
        <time>2025-05-18T07:26:13.000Z</time>
      </trkpt>
      <trkpt lat="43.63661" lon="6.23263">
        <ele>628.3</ele>
        <time>2025-05-18T07:26:23.000Z</time>
      </trkpt>
      <trkpt lat="43.63658" lon="6.23275">
        <ele>629.3</ele>
        <time>2025-05-18T07:26:33.000Z</time>
      </trkpt>
      <trkpt lat="43.63659" lon="6.23289">
        <ele>631</ele>
        <time>2025-05-18T07:26:43.000Z</time>
      </trkpt>
      <trkpt lat="43.63663" lon="6.233">
        <ele>632.5</ele>
        <time>2025-05-18T07:26:53.000Z</time>
      </trkpt>
      <trkpt lat="43.63669" lon="6.2331">
        <ele>634</ele>
        <time>2025-05-18T07:27:05.000Z</time>
      </trkpt>
      <trkpt lat="43.63665" lon="6.23322">
        <ele>635.6</ele>
        <time>2025-05-18T07:27:23.000Z</time>
      </trkpt>
      <trkpt lat="43.63656" lon="6.23324">
        <ele>636.3</ele>
        <time>2025-05-18T07:27:33.000Z</time>
      </trkpt>
      <trkpt lat="43.63648" lon="6.23318">
        <ele>637.5</ele>
        <time>2025-05-18T07:27:47.000Z</time>
      </trkpt>
      <trkpt lat="43.63645" lon="6.23306">
        <ele>638.2</ele>
        <time>2025-05-18T07:28:04.000Z</time>
      </trkpt>
      <trkpt lat="43.63643" lon="6.23292">
        <ele>638.4</ele>
        <time>2025-05-18T07:28:14.000Z</time>
      </trkpt>
      <trkpt lat="43.63635" lon="6.23286">
        <ele>638.7</ele>
        <time>2025-05-18T07:28:23.000Z</time>
      </trkpt>
      <trkpt lat="43.63624" lon="6.23286">
        <ele>639.1</ele>
        <time>2025-05-18T07:28:29.000Z</time>
      </trkpt>
      <trkpt lat="43.63615" lon="6.23286">
        <ele>639.6</ele>
        <time>2025-05-18T07:28:36.000Z</time>
      </trkpt>
      <trkpt lat="43.63606" lon="6.23287">
        <ele>639.8</ele>
        <time>2025-05-18T07:28:44.000Z</time>
      </trkpt>
      <trkpt lat="43.63597" lon="6.23285">
        <ele>640.1</ele>
        <time>2025-05-18T07:28:56.000Z</time>
      </trkpt>
      <trkpt lat="43.63587" lon="6.23283">
        <ele>640.4</ele>
        <time>2025-05-18T07:29:03.000Z</time>
      </trkpt>
      <trkpt lat="43.63578" lon="6.23281">
        <ele>640.9</ele>
        <time>2025-05-18T07:29:12.000Z</time>
      </trkpt>
      <trkpt lat="43.63568" lon="6.23282">
        <ele>641.4</ele>
        <time>2025-05-18T07:29:21.000Z</time>
      </trkpt>
      <trkpt lat="43.63559" lon="6.23279">
        <ele>642.1</ele>
        <time>2025-05-18T07:29:33.000Z</time>
      </trkpt>
      <trkpt lat="43.63549" lon="6.23277">
        <ele>642.7</ele>
        <time>2025-05-18T07:29:43.000Z</time>
      </trkpt>
      <trkpt lat="43.6354" lon="6.23274">
        <ele>643.1</ele>
        <time>2025-05-18T07:29:52.000Z</time>
      </trkpt>
      <trkpt lat="43.63531" lon="6.23273">
        <ele>643.2</ele>
        <time>2025-05-18T07:30:00.000Z</time>
      </trkpt>
      <trkpt lat="43.63521" lon="6.2327">
        <ele>643.4</ele>
        <time>2025-05-18T07:30:08.000Z</time>
      </trkpt>
      <trkpt lat="43.63512" lon="6.23267">
        <ele>643.6</ele>
        <time>2025-05-18T07:30:15.000Z</time>
      </trkpt>
      <trkpt lat="43.63503" lon="6.2327">
        <ele>643.9</ele>
        <time>2025-05-18T07:30:25.000Z</time>
      </trkpt>
      <trkpt lat="43.63493" lon="6.23271">
        <ele>643.9</ele>
        <time>2025-05-18T07:30:32.000Z</time>
      </trkpt>
      <trkpt lat="43.63483" lon="6.23273">
        <ele>644</ele>
        <time>2025-05-18T07:30:41.000Z</time>
      </trkpt>
      <trkpt lat="43.63474" lon="6.23278">
        <ele>644.2</ele>
        <time>2025-05-18T07:30:48.000Z</time>
      </trkpt>
      <trkpt lat="43.63466" lon="6.23286">
        <ele>644.4</ele>
        <time>2025-05-18T07:30:59.000Z</time>
      </trkpt>
      <trkpt lat="43.63464" lon="6.23298">
        <ele>644.6</ele>
        <time>2025-05-18T07:32:21.000Z</time>
      </trkpt>
      <trkpt lat="43.63459" lon="6.2331">
        <ele>644.8</ele>
        <time>2025-05-18T07:34:07.000Z</time>
      </trkpt>
      <trkpt lat="43.63467" lon="6.23318">
        <ele>645.2</ele>
        <time>2025-05-18T07:34:19.000Z</time>
      </trkpt>
      <trkpt lat="43.63476" lon="6.2332">
        <ele>647.4</ele>
        <time>2025-05-18T07:34:34.000Z</time>
      </trkpt>
      <trkpt lat="43.63485" lon="6.23319">
        <ele>650.8</ele>
        <time>2025-05-18T07:34:52.000Z</time>
      </trkpt>
      <trkpt lat="43.63494" lon="6.2332">
        <ele>653.1</ele>
        <time>2025-05-18T07:35:06.000Z</time>
      </trkpt>
      <trkpt lat="43.63503" lon="6.23322">
        <ele>655.3</ele>
        <time>2025-05-18T07:35:19.000Z</time>
      </trkpt>
      <trkpt lat="43.63511" lon="6.23329">
        <ele>657.1</ele>
        <time>2025-05-18T07:35:31.000Z</time>
      </trkpt>
      <trkpt lat="43.6352" lon="6.23332">
        <ele>659.1</ele>
        <time>2025-05-18T07:35:44.000Z</time>
      </trkpt>
      <trkpt lat="43.63529" lon="6.23335">
        <ele>660.2</ele>
        <time>2025-05-18T07:36:00.000Z</time>
      </trkpt>
      <trkpt lat="43.63538" lon="6.23339">
        <ele>661.3</ele>
        <time>2025-05-18T07:36:13.000Z</time>
      </trkpt>
      <trkpt lat="43.63547" lon="6.23346">
        <ele>662.2</ele>
        <time>2025-05-18T07:36:25.000Z</time>
      </trkpt>
      <trkpt lat="43.63555" lon="6.23351">
        <ele>662.8</ele>
        <time>2025-05-18T07:36:35.000Z</time>
      </trkpt>
      <trkpt lat="43.63564" lon="6.23356">
        <ele>663.1</ele>
        <time>2025-05-18T07:36:45.000Z</time>
      </trkpt>
      <trkpt lat="43.63571" lon="6.23364">
        <ele>663.4</ele>
        <time>2025-05-18T07:36:52.000Z</time>
      </trkpt>
      <trkpt lat="43.63579" lon="6.23371">
        <ele>663.8</ele>
        <time>2025-05-18T07:37:00.000Z</time>
      </trkpt>
      <trkpt lat="43.63589" lon="6.23373">
        <ele>664.1</ele>
        <time>2025-05-18T07:37:10.000Z</time>
      </trkpt>
      <trkpt lat="43.63597" lon="6.23379">
        <ele>664.7</ele>
        <time>2025-05-18T07:37:19.000Z</time>
      </trkpt>
      <trkpt lat="43.63606" lon="6.23385">
        <ele>665.1</ele>
        <time>2025-05-18T07:37:29.000Z</time>
      </trkpt>
      <trkpt lat="43.63613" lon="6.23393">
        <ele>665.2</ele>
        <time>2025-05-18T07:37:37.000Z</time>
      </trkpt>
      <trkpt lat="43.6362" lon="6.23401">
        <ele>665.3</ele>
        <time>2025-05-18T07:37:46.000Z</time>
      </trkpt>
      <trkpt lat="43.63627" lon="6.23411">
        <ele>665.5</ele>
        <time>2025-05-18T07:37:54.000Z</time>
      </trkpt>
      <trkpt lat="43.63635" lon="6.23418">
        <ele>665.6</ele>
        <time>2025-05-18T07:38:02.000Z</time>
      </trkpt>
      <trkpt lat="43.63643" lon="6.23423">
        <ele>665.7</ele>
        <time>2025-05-18T07:38:11.000Z</time>
      </trkpt>
      <trkpt lat="43.63653" lon="6.23428">
        <ele>665.8</ele>
        <time>2025-05-18T07:38:20.000Z</time>
      </trkpt>
      <trkpt lat="43.63661" lon="6.23435">
        <ele>666</ele>
        <time>2025-05-18T07:38:31.000Z</time>
      </trkpt>
      <trkpt lat="43.63671" lon="6.23439">
        <ele>666.4</ele>
        <time>2025-05-18T07:38:40.000Z</time>
      </trkpt>
      <trkpt lat="43.6368" lon="6.23436">
        <ele>666.8</ele>
        <time>2025-05-18T07:38:47.000Z</time>
      </trkpt>
      <trkpt lat="43.63688" lon="6.23429">
        <ele>667.2</ele>
        <time>2025-05-18T07:38:53.000Z</time>
      </trkpt>
      <trkpt lat="43.63696" lon="6.23422">
        <ele>667.5</ele>
        <time>2025-05-18T07:39:00.000Z</time>
      </trkpt>
      <trkpt lat="43.63702" lon="6.23413">
        <ele>668.1</ele>
        <time>2025-05-18T07:39:08.000Z</time>
      </trkpt>
      <trkpt lat="43.6371" lon="6.23403">
        <ele>668.7</ele>
        <time>2025-05-18T07:39:16.000Z</time>
      </trkpt>
      <trkpt lat="43.63719" lon="6.234">
        <ele>669.6</ele>
        <time>2025-05-18T07:39:27.000Z</time>
      </trkpt>
      <trkpt lat="43.63728" lon="6.23401">
        <ele>670.3</ele>
        <time>2025-05-18T07:39:37.000Z</time>
      </trkpt>
      <trkpt lat="43.63737" lon="6.23405">
        <ele>672</ele>
        <time>2025-05-18T07:39:49.000Z</time>
      </trkpt>
      <trkpt lat="43.63745" lon="6.23411">
        <ele>673.4</ele>
        <time>2025-05-18T07:40:01.000Z</time>
      </trkpt>
      <trkpt lat="43.63752" lon="6.23421">
        <ele>675.5</ele>
        <time>2025-05-18T07:40:17.000Z</time>
      </trkpt>
      <trkpt lat="43.6376" lon="6.23428">
        <ele>677.2</ele>
        <time>2025-05-18T07:40:29.000Z</time>
      </trkpt>
      <trkpt lat="43.63768" lon="6.23434">
        <ele>679.4</ele>
        <time>2025-05-18T07:40:42.000Z</time>
      </trkpt>
      <trkpt lat="43.63776" lon="6.23441">
        <ele>681</ele>
        <time>2025-05-18T07:40:54.000Z</time>
      </trkpt>
      <trkpt lat="43.63784" lon="6.23449">
        <ele>682.8</ele>
        <time>2025-05-18T07:41:04.000Z</time>
      </trkpt>
      <trkpt lat="43.63789" lon="6.2346">
        <ele>684.1</ele>
        <time>2025-05-18T07:41:13.000Z</time>
      </trkpt>
      <trkpt lat="43.63795" lon="6.2347">
        <ele>684.8</ele>
        <time>2025-05-18T07:41:23.000Z</time>
      </trkpt>
      <trkpt lat="43.63803" lon="6.23476">
        <ele>685.2</ele>
        <time>2025-05-18T07:41:33.000Z</time>
      </trkpt>
      <trkpt lat="43.63812" lon="6.23482">
        <ele>686.3</ele>
        <time>2025-05-18T07:41:45.000Z</time>
      </trkpt>
      <trkpt lat="43.63821" lon="6.23482">
        <ele>687.4</ele>
        <time>2025-05-18T07:41:55.000Z</time>
      </trkpt>
      <trkpt lat="43.63829" lon="6.23489">
        <ele>689.4</ele>
        <time>2025-05-18T07:42:09.000Z</time>
      </trkpt>
      <trkpt lat="43.63838" lon="6.2349">
        <ele>691.7</ele>
        <time>2025-05-18T07:42:26.000Z</time>
      </trkpt>
      <trkpt lat="43.63843" lon="6.235">
        <ele>693.4</ele>
        <time>2025-05-18T07:42:41.000Z</time>
      </trkpt>
      <trkpt lat="43.63851" lon="6.23506">
        <ele>695.7</ele>
        <time>2025-05-18T07:42:58.000Z</time>
      </trkpt>
      <trkpt lat="43.63857" lon="6.23516">
        <ele>698.6</ele>
        <time>2025-05-18T07:43:19.000Z</time>
      </trkpt>
      <trkpt lat="43.63863" lon="6.23526">
        <ele>700.8</ele>
        <time>2025-05-18T07:43:36.000Z</time>
      </trkpt>
      <trkpt lat="43.63868" lon="6.23536">
        <ele>703</ele>
        <time>2025-05-18T07:43:53.000Z</time>
      </trkpt>
      <trkpt lat="43.63868" lon="6.23549">
        <ele>704.6</ele>
        <time>2025-05-18T07:44:09.000Z</time>
      </trkpt>
      <trkpt lat="43.63869" lon="6.23562">
        <ele>706.4</ele>
        <time>2025-05-18T07:44:22.000Z</time>
      </trkpt>
      <trkpt lat="43.63872" lon="6.23574">
        <ele>708.1</ele>
        <time>2025-05-18T07:44:38.000Z</time>
      </trkpt>
      <trkpt lat="43.63879" lon="6.23583">
        <ele>711.2</ele>
        <time>2025-05-18T07:46:06.000Z</time>
      </trkpt>
      <trkpt lat="43.63885" lon="6.23592">
        <ele>711.6</ele>
        <time>2025-05-18T07:48:13.000Z</time>
      </trkpt>
      <trkpt lat="43.63893" lon="6.23599">
        <ele>712.3</ele>
        <time>2025-05-18T07:48:32.000Z</time>
      </trkpt>
      <trkpt lat="43.63902" lon="6.23602">
        <ele>712.9</ele>
        <time>2025-05-18T07:48:50.000Z</time>
      </trkpt>
      <trkpt lat="43.6391" lon="6.2361">
        <ele>714.2</ele>
        <time>2025-05-18T07:49:06.000Z</time>
      </trkpt>
      <trkpt lat="43.63918" lon="6.23614">
        <ele>716</ele>
        <time>2025-05-18T07:49:18.000Z</time>
      </trkpt>
      <trkpt lat="43.63927" lon="6.23618">
        <ele>717.6</ele>
        <time>2025-05-18T07:49:33.000Z</time>
      </trkpt>
      <trkpt lat="43.63933" lon="6.23629">
        <ele>719</ele>
        <time>2025-05-18T07:49:45.000Z</time>
      </trkpt>
      <trkpt lat="43.63941" lon="6.23636">
        <ele>720.1</ele>
        <time>2025-05-18T07:49:56.000Z</time>
      </trkpt>
      <trkpt lat="43.63946" lon="6.23647">
        <ele>721.3</ele>
        <time>2025-05-18T07:50:07.000Z</time>
      </trkpt>
      <trkpt lat="43.63953" lon="6.23656">
        <ele>722.8</ele>
        <time>2025-05-18T07:50:19.000Z</time>
      </trkpt>
      <trkpt lat="43.6396" lon="6.23665">
        <ele>724.7</ele>
        <time>2025-05-18T07:50:34.000Z</time>
      </trkpt>
      <trkpt lat="43.63964" lon="6.23676">
        <ele>726.4</ele>
        <time>2025-05-18T07:50:46.000Z</time>
      </trkpt>
      <trkpt lat="43.63967" lon="6.23688">
        <ele>727.6</ele>
        <time>2025-05-18T07:50:59.000Z</time>
      </trkpt>
      <trkpt lat="43.63964" lon="6.237">
        <ele>729.1</ele>
        <time>2025-05-18T07:51:16.000Z</time>
      </trkpt>
      <trkpt lat="43.63956" lon="6.23706">
        <ele>730.5</ele>
        <time>2025-05-18T07:51:30.000Z</time>
      </trkpt>
      <trkpt lat="43.63948" lon="6.23713">
        <ele>732.7</ele>
        <time>2025-05-18T07:51:46.000Z</time>
      </trkpt>
      <trkpt lat="43.6394" lon="6.23721">
        <ele>734.2</ele>
        <time>2025-05-18T07:52:01.000Z</time>
      </trkpt>
      <trkpt lat="43.63934" lon="6.2373">
        <ele>736.5</ele>
        <time>2025-05-18T07:52:20.000Z</time>
      </trkpt>
      <trkpt lat="43.63932" lon="6.23742">
        <ele>738.6</ele>
        <time>2025-05-18T07:52:33.000Z</time>
      </trkpt>
      <trkpt lat="43.63929" lon="6.23754">
        <ele>740.3</ele>
        <time>2025-05-18T07:52:47.000Z</time>
      </trkpt>
      <trkpt lat="43.63923" lon="6.23763">
        <ele>741.3</ele>
        <time>2025-05-18T07:52:58.000Z</time>
      </trkpt>
      <trkpt lat="43.63918" lon="6.23774">
        <ele>743.5</ele>
        <time>2025-05-18T07:53:17.000Z</time>
      </trkpt>
      <trkpt lat="43.63909" lon="6.23779">
        <ele>745.2</ele>
        <time>2025-05-18T07:53:29.000Z</time>
      </trkpt>
      <trkpt lat="43.63901" lon="6.23787">
        <ele>746.4</ele>
        <time>2025-05-18T07:53:41.000Z</time>
      </trkpt>
      <trkpt lat="43.63892" lon="6.23792">
        <ele>747.4</ele>
        <time>2025-05-18T07:53:52.000Z</time>
      </trkpt>
      <trkpt lat="43.63885" lon="6.238">
        <ele>748.2</ele>
        <time>2025-05-18T07:54:03.000Z</time>
      </trkpt>
      <trkpt lat="43.63876" lon="6.23803">
        <ele>749.6</ele>
        <time>2025-05-18T07:54:18.000Z</time>
      </trkpt>
      <trkpt lat="43.63867" lon="6.23802">
        <ele>751.1</ele>
        <time>2025-05-18T07:54:30.000Z</time>
      </trkpt>
      <trkpt lat="43.63858" lon="6.23805">
        <ele>752.1</ele>
        <time>2025-05-18T07:54:41.000Z</time>
      </trkpt>
      <trkpt lat="43.63849" lon="6.2381">
        <ele>753.2</ele>
        <time>2025-05-18T07:54:53.000Z</time>
      </trkpt>
      <trkpt lat="43.63841" lon="6.23818">
        <ele>754.1</ele>
        <time>2025-05-18T07:55:05.000Z</time>
      </trkpt>
      <trkpt lat="43.63835" lon="6.23828">
        <ele>755.7</ele>
        <time>2025-05-18T07:55:21.000Z</time>
      </trkpt>
      <trkpt lat="43.63829" lon="6.23838">
        <ele>757.2</ele>
        <time>2025-05-18T07:55:35.000Z</time>
      </trkpt>
      <trkpt lat="43.63824" lon="6.23849">
        <ele>758.9</ele>
        <time>2025-05-18T07:55:49.000Z</time>
      </trkpt>
      <trkpt lat="43.6382" lon="6.2386">
        <ele>760.5</ele>
        <time>2025-05-18T07:56:03.000Z</time>
      </trkpt>
      <trkpt lat="43.63816" lon="6.23872">
        <ele>762.5</ele>
        <time>2025-05-18T07:56:18.000Z</time>
      </trkpt>
      <trkpt lat="43.63813" lon="6.23884">
        <ele>764.2</ele>
        <time>2025-05-18T07:56:32.000Z</time>
      </trkpt>
      <trkpt lat="43.63807" lon="6.23894">
        <ele>766.1</ele>
        <time>2025-05-18T07:56:47.000Z</time>
      </trkpt>
      <trkpt lat="43.638" lon="6.23902">
        <ele>768.1</ele>
        <time>2025-05-18T07:57:04.000Z</time>
      </trkpt>
      <trkpt lat="43.63795" lon="6.23912">
        <ele>769.6</ele>
        <time>2025-05-18T07:57:16.000Z</time>
      </trkpt>
      <trkpt lat="43.63786" lon="6.23917">
        <ele>771.4</ele>
        <time>2025-05-18T07:57:31.000Z</time>
      </trkpt>
      <trkpt lat="43.63778" lon="6.23925">
        <ele>773.9</ele>
        <time>2025-05-18T08:00:26.000Z</time>
      </trkpt>
      <trkpt lat="43.63769" lon="6.23922">
        <ele>774.1</ele>
        <time>2025-05-18T08:00:35.000Z</time>
      </trkpt>
      <trkpt lat="43.6376" lon="6.23921">
        <ele>774.3</ele>
        <time>2025-05-18T08:00:47.000Z</time>
      </trkpt>
      <trkpt lat="43.6375" lon="6.23921">
        <ele>774.6</ele>
        <time>2025-05-18T08:00:58.000Z</time>
      </trkpt>
      <trkpt lat="43.6374" lon="6.23923">
        <ele>775.3</ele>
        <time>2025-05-18T08:01:09.000Z</time>
      </trkpt>
      <trkpt lat="43.63734" lon="6.23932">
        <ele>776.2</ele>
        <time>2025-05-18T08:01:20.000Z</time>
      </trkpt>
      <trkpt lat="43.63727" lon="6.23941">
        <ele>777.3</ele>
        <time>2025-05-18T08:01:31.000Z</time>
      </trkpt>
      <trkpt lat="43.6372" lon="6.23948">
        <ele>778.7</ele>
        <time>2025-05-18T08:01:47.000Z</time>
      </trkpt>
      <trkpt lat="43.63711" lon="6.23953">
        <ele>779.1</ele>
        <time>2025-05-18T08:01:55.000Z</time>
      </trkpt>
      <trkpt lat="43.63702" lon="6.23956">
        <ele>779.3</ele>
        <time>2025-05-18T08:02:08.000Z</time>
      </trkpt>
      <trkpt lat="43.63693" lon="6.23955">
        <ele>779.4</ele>
        <time>2025-05-18T08:02:17.000Z</time>
      </trkpt>
      <trkpt lat="43.63683" lon="6.23952">
        <ele>779.5</ele>
        <time>2025-05-18T08:02:26.000Z</time>
      </trkpt>
      <trkpt lat="43.63673" lon="6.23955">
        <ele>779.8</ele>
        <time>2025-05-18T08:02:36.000Z</time>
      </trkpt>
      <trkpt lat="43.63664" lon="6.23952">
        <ele>780.1</ele>
        <time>2025-05-18T08:02:45.000Z</time>
      </trkpt>
      <trkpt lat="43.63654" lon="6.23953">
        <ele>780.4</ele>
        <time>2025-05-18T08:02:52.000Z</time>
      </trkpt>
      <trkpt lat="43.63646" lon="6.23957">
        <ele>781</ele>
        <time>2025-05-18T08:03:00.000Z</time>
      </trkpt>
      <trkpt lat="43.63637" lon="6.23963">
        <ele>782</ele>
        <time>2025-05-18T08:03:11.000Z</time>
      </trkpt>
      <trkpt lat="43.63628" lon="6.23968">
        <ele>782.6</ele>
        <time>2025-05-18T08:03:19.000Z</time>
      </trkpt>
      <trkpt lat="43.63619" lon="6.23971">
        <ele>783.1</ele>
        <time>2025-05-18T08:03:27.000Z</time>
      </trkpt>
      <trkpt lat="43.63609" lon="6.23973">
        <ele>783.5</ele>
        <time>2025-05-18T08:03:35.000Z</time>
      </trkpt>
      <trkpt lat="43.636" lon="6.23977">
        <ele>784.1</ele>
        <time>2025-05-18T08:03:44.000Z</time>
      </trkpt>
      <trkpt lat="43.63591" lon="6.23983">
        <ele>784.6</ele>
        <time>2025-05-18T08:03:54.000Z</time>
      </trkpt>
      <trkpt lat="43.63582" lon="6.23989">
        <ele>785</ele>
        <time>2025-05-18T08:04:04.000Z</time>
      </trkpt>
      <trkpt lat="43.63573" lon="6.23996">
        <ele>785.6</ele>
        <time>2025-05-18T08:04:13.000Z</time>
      </trkpt>
      <trkpt lat="43.63565" lon="6.24004">
        <ele>786.7</ele>
        <time>2025-05-18T08:04:23.000Z</time>
      </trkpt>
      <trkpt lat="43.63558" lon="6.24012">
        <ele>787.7</ele>
        <time>2025-05-18T08:04:32.000Z</time>
      </trkpt>
      <trkpt lat="43.6355" lon="6.24021">
        <ele>788.8</ele>
        <time>2025-05-18T08:04:43.000Z</time>
      </trkpt>
      <trkpt lat="43.63546" lon="6.24033">
        <ele>790.1</ele>
        <time>2025-05-18T08:04:54.000Z</time>
      </trkpt>
      <trkpt lat="43.63537" lon="6.2404">
        <ele>791.5</ele>
        <time>2025-05-18T08:05:05.000Z</time>
      </trkpt>
      <trkpt lat="43.6353" lon="6.24047">
        <ele>792.8</ele>
        <time>2025-05-18T08:05:17.000Z</time>
      </trkpt>
      <trkpt lat="43.63523" lon="6.24056">
        <ele>794</ele>
        <time>2025-05-18T08:05:28.000Z</time>
      </trkpt>
      <trkpt lat="43.63518" lon="6.24067">
        <ele>795.2</ele>
        <time>2025-05-18T08:05:38.000Z</time>
      </trkpt>
      <trkpt lat="43.63514" lon="6.24079">
        <ele>796.5</ele>
        <time>2025-05-18T08:05:51.000Z</time>
      </trkpt>
      <trkpt lat="43.63507" lon="6.24088">
        <ele>798.1</ele>
        <time>2025-05-18T08:06:03.000Z</time>
      </trkpt>
      <trkpt lat="43.63499" lon="6.24095">
        <ele>799.2</ele>
        <time>2025-05-18T08:06:14.000Z</time>
      </trkpt>
      <trkpt lat="43.63492" lon="6.24103">
        <ele>799.9</ele>
        <time>2025-05-18T08:06:23.000Z</time>
      </trkpt>
      <trkpt lat="43.63487" lon="6.24114">
        <ele>800.6</ele>
        <time>2025-05-18T08:06:35.000Z</time>
      </trkpt>
      <trkpt lat="43.63482" lon="6.24125">
        <ele>802</ele>
        <time>2025-05-18T08:06:47.000Z</time>
      </trkpt>
      <trkpt lat="43.63475" lon="6.24133">
        <ele>803.2</ele>
        <time>2025-05-18T08:06:58.000Z</time>
      </trkpt>
      <trkpt lat="43.63468" lon="6.24141">
        <ele>804.8</ele>
        <time>2025-05-18T08:07:09.000Z</time>
      </trkpt>
      <trkpt lat="43.6346" lon="6.24147">
        <ele>806.4</ele>
        <time>2025-05-18T08:07:23.000Z</time>
      </trkpt>
      <trkpt lat="43.63452" lon="6.24153">
        <ele>807.8</ele>
        <time>2025-05-18T08:07:33.000Z</time>
      </trkpt>
      <trkpt lat="43.63445" lon="6.24161">
        <ele>809</ele>
        <time>2025-05-18T08:07:44.000Z</time>
      </trkpt>
      <trkpt lat="43.63438" lon="6.24171">
        <ele>809.8</ele>
        <time>2025-05-18T08:07:54.000Z</time>
      </trkpt>
      <trkpt lat="43.63433" lon="6.24181">
        <ele>810.8</ele>
        <time>2025-05-18T08:08:04.000Z</time>
      </trkpt>
      <trkpt lat="43.63428" lon="6.24193">
        <ele>811.8</ele>
        <time>2025-05-18T08:08:16.000Z</time>
      </trkpt>
      <trkpt lat="43.63428" lon="6.24206">
        <ele>812.9</ele>
        <time>2025-05-18T08:08:26.000Z</time>
      </trkpt>
      <trkpt lat="43.63427" lon="6.2422">
        <ele>813.9</ele>
        <time>2025-05-18T08:08:36.000Z</time>
      </trkpt>
      <trkpt lat="43.63426" lon="6.24233">
        <ele>814.9</ele>
        <time>2025-05-18T08:08:47.000Z</time>
      </trkpt>
      <trkpt lat="43.63422" lon="6.24244">
        <ele>816</ele>
        <time>2025-05-18T08:08:58.000Z</time>
      </trkpt>
      <trkpt lat="43.6342" lon="6.24257">
        <ele>816.8</ele>
        <time>2025-05-18T08:09:09.000Z</time>
      </trkpt>
      <trkpt lat="43.63421" lon="6.2427">
        <ele>818.2</ele>
        <time>2025-05-18T08:09:21.000Z</time>
      </trkpt>
      <trkpt lat="43.6342" lon="6.24284">
        <ele>819</ele>
        <time>2025-05-18T08:09:32.000Z</time>
      </trkpt>
      <trkpt lat="43.63418" lon="6.24297">
        <ele>819.9</ele>
        <time>2025-05-18T08:09:42.000Z</time>
      </trkpt>
      <trkpt lat="43.63414" lon="6.24309">
        <ele>820.8</ele>
        <time>2025-05-18T08:09:53.000Z</time>
      </trkpt>
      <trkpt lat="43.63406" lon="6.24318">
        <ele>821.4</ele>
        <time>2025-05-18T08:10:04.000Z</time>
      </trkpt>
      <trkpt lat="43.63402" lon="6.24329">
        <ele>821.7</ele>
        <time>2025-05-18T08:10:11.000Z</time>
      </trkpt>
      <trkpt lat="43.63401" lon="6.24342">
        <ele>822</ele>
        <time>2025-05-18T08:10:20.000Z</time>
      </trkpt>
      <trkpt lat="43.634" lon="6.24354">
        <ele>822.5</ele>
        <time>2025-05-18T08:12:52.000Z</time>
      </trkpt>
      <trkpt lat="43.63397" lon="6.24366">
        <ele>822.5</ele>
        <time>2025-05-18T08:13:00.000Z</time>
      </trkpt>
      <trkpt lat="43.63397" lon="6.24379">
        <ele>822.5</ele>
        <time>2025-05-18T08:13:12.000Z</time>
      </trkpt>
      <trkpt lat="43.63395" lon="6.24392">
        <ele>822.7</ele>
        <time>2025-05-18T08:13:31.000Z</time>
      </trkpt>
      <trkpt lat="43.63392" lon="6.24406">
        <ele>822.8</ele>
        <time>2025-05-18T08:13:38.000Z</time>
      </trkpt>
      <trkpt lat="43.63388" lon="6.24417">
        <ele>823.1</ele>
        <time>2025-05-18T08:13:46.000Z</time>
      </trkpt>
      <trkpt lat="43.63381" lon="6.24426">
        <ele>823.7</ele>
        <time>2025-05-18T08:13:57.000Z</time>
      </trkpt>
      <trkpt lat="43.63372" lon="6.24431">
        <ele>824.2</ele>
        <time>2025-05-18T08:14:06.000Z</time>
      </trkpt>
      <trkpt lat="43.63364" lon="6.2444">
        <ele>825.1</ele>
        <time>2025-05-18T08:14:16.000Z</time>
      </trkpt>
      <trkpt lat="43.63358" lon="6.2445">
        <ele>825.8</ele>
        <time>2025-05-18T08:14:29.000Z</time>
      </trkpt>
      <trkpt lat="43.6335" lon="6.24458">
        <ele>826.2</ele>
        <time>2025-05-18T08:14:37.000Z</time>
      </trkpt>
      <trkpt lat="43.63341" lon="6.24464">
        <ele>826.6</ele>
        <time>2025-05-18T08:14:47.000Z</time>
      </trkpt>
      <trkpt lat="43.63332" lon="6.24469">
        <ele>827.2</ele>
        <time>2025-05-18T08:14:57.000Z</time>
      </trkpt>
      <trkpt lat="43.63323" lon="6.24473">
        <ele>827.6</ele>
        <time>2025-05-18T08:15:06.000Z</time>
      </trkpt>
      <trkpt lat="43.63316" lon="6.24481">
        <ele>828.1</ele>
        <time>2025-05-18T08:15:15.000Z</time>
      </trkpt>
      <trkpt lat="43.63308" lon="6.24488">
        <ele>828.3</ele>
        <time>2025-05-18T08:15:23.000Z</time>
      </trkpt>
      <trkpt lat="43.63301" lon="6.24499">
        <ele>828.7</ele>
        <time>2025-05-18T08:15:32.000Z</time>
      </trkpt>
      <trkpt lat="43.63296" lon="6.2451">
        <ele>829.1</ele>
        <time>2025-05-18T08:15:41.000Z</time>
      </trkpt>
      <trkpt lat="43.6329" lon="6.24521">
        <ele>829.3</ele>
        <time>2025-05-18T08:15:50.000Z</time>
      </trkpt>
      <trkpt lat="43.63286" lon="6.24532">
        <ele>829.7</ele>
        <time>2025-05-18T08:16:00.000Z</time>
      </trkpt>
      <trkpt lat="43.63281" lon="6.24545">
        <ele>830.2</ele>
        <time>2025-05-18T08:16:10.000Z</time>
      </trkpt>
      <trkpt lat="43.63277" lon="6.24556">
        <ele>831.1</ele>
        <time>2025-05-18T08:16:21.000Z</time>
      </trkpt>
      <trkpt lat="43.63272" lon="6.24567">
        <ele>831.6</ele>
        <time>2025-05-18T08:16:30.000Z</time>
      </trkpt>
      <trkpt lat="43.63268" lon="6.24579">
        <ele>831.8</ele>
        <time>2025-05-18T08:16:38.000Z</time>
      </trkpt>
      <trkpt lat="43.63264" lon="6.24591">
        <ele>832</ele>
        <time>2025-05-18T08:16:47.000Z</time>
      </trkpt>
      <trkpt lat="43.63261" lon="6.24604">
        <ele>832</ele>
        <time>2025-05-18T08:16:57.000Z</time>
      </trkpt>
      <trkpt lat="43.63258" lon="6.24615">
        <ele>832.1</ele>
        <time>2025-05-18T08:17:12.000Z</time>
      </trkpt>
      <trkpt lat="43.63252" lon="6.24625">
        <ele>832.2</ele>
        <time>2025-05-18T08:17:23.000Z</time>
      </trkpt>
      <trkpt lat="43.63245" lon="6.24617">
        <ele>832.5</ele>
        <time>2025-05-18T08:18:59.000Z</time>
      </trkpt>
      <trkpt lat="43.63236" lon="6.2461">
        <ele>832.5</ele>
        <time>2025-05-18T08:19:10.000Z</time>
      </trkpt>
      <trkpt lat="43.63228" lon="6.24604">
        <ele>832.5</ele>
        <time>2025-05-18T08:19:23.000Z</time>
      </trkpt>
      <trkpt lat="43.63219" lon="6.24601">
        <ele>832.3</ele>
        <time>2025-05-18T08:19:32.000Z</time>
      </trkpt>
      <trkpt lat="43.63211" lon="6.24596">
        <ele>832</ele>
        <time>2025-05-18T08:19:44.000Z</time>
      </trkpt>
      <trkpt lat="43.63203" lon="6.24588">
        <ele>831.8</ele>
        <time>2025-05-18T08:19:55.000Z</time>
      </trkpt>
      <trkpt lat="43.63194" lon="6.24583">
        <ele>831.6</ele>
        <time>2025-05-18T08:20:03.000Z</time>
      </trkpt>
      <trkpt lat="43.63185" lon="6.24577">
        <ele>831.4</ele>
        <time>2025-05-18T08:20:14.000Z</time>
      </trkpt>
      <trkpt lat="43.63175" lon="6.24574">
        <ele>831.5</ele>
        <time>2025-05-18T08:20:22.000Z</time>
      </trkpt>
      <trkpt lat="43.63171" lon="6.24563">
        <ele>831.5</ele>
        <time>2025-05-18T08:20:30.000Z</time>
      </trkpt>
      <trkpt lat="43.63161" lon="6.24563">
        <ele>831.1</ele>
        <time>2025-05-18T08:20:43.000Z</time>
      </trkpt>
      <trkpt lat="43.63152" lon="6.24561">
        <ele>830</ele>
        <time>2025-05-18T08:20:55.000Z</time>
      </trkpt>
      <trkpt lat="43.63148" lon="6.2455">
        <ele>829.3</ele>
        <time>2025-05-18T08:21:04.000Z</time>
      </trkpt>
      <trkpt lat="43.63146" lon="6.24538">
        <ele>828.6</ele>
        <time>2025-05-18T08:21:15.000Z</time>
      </trkpt>
      <trkpt lat="43.63145" lon="6.24525">
        <ele>827.6</ele>
        <time>2025-05-18T08:21:25.000Z</time>
      </trkpt>
      <trkpt lat="43.63137" lon="6.24517">
        <ele>826.9</ele>
        <time>2025-05-18T08:21:34.000Z</time>
      </trkpt>
      <trkpt lat="43.6313" lon="6.24506">
        <ele>826</ele>
        <time>2025-05-18T08:21:45.000Z</time>
      </trkpt>
      <trkpt lat="43.63122" lon="6.24501">
        <ele>825</ele>
        <time>2025-05-18T08:21:58.000Z</time>
      </trkpt>
      <trkpt lat="43.63113" lon="6.24498">
        <ele>822.9</ele>
        <time>2025-05-18T08:22:14.000Z</time>
      </trkpt>
      <trkpt lat="43.63106" lon="6.24489">
        <ele>821</ele>
        <time>2025-05-18T08:22:26.000Z</time>
      </trkpt>
      <trkpt lat="43.63102" lon="6.24478">
        <ele>820</ele>
        <time>2025-05-18T08:22:36.000Z</time>
      </trkpt>
      <trkpt lat="43.63096" lon="6.24468">
        <ele>818.7</ele>
        <time>2025-05-18T08:22:51.000Z</time>
      </trkpt>
      <trkpt lat="43.63088" lon="6.24461">
        <ele>817.3</ele>
        <time>2025-05-18T08:23:13.000Z</time>
      </trkpt>
      <trkpt lat="43.63078" lon="6.2446">
        <ele>815.9</ele>
        <time>2025-05-18T08:23:49.000Z</time>
      </trkpt>
      <trkpt lat="43.63069" lon="6.24457">
        <ele>815.3</ele>
        <time>2025-05-18T08:24:39.000Z</time>
      </trkpt>
      <trkpt lat="43.63078" lon="6.24461">
        <ele>814.3</ele>
        <time>2025-05-18T08:35:39.000Z</time>
      </trkpt>
      <trkpt lat="43.63086" lon="6.24469">
        <ele>814.5</ele>
        <time>2025-05-18T08:35:54.000Z</time>
      </trkpt>
      <trkpt lat="43.63095" lon="6.24474">
        <ele>816.3</ele>
        <time>2025-05-18T08:36:10.000Z</time>
      </trkpt>
      <trkpt lat="43.63101" lon="6.24483">
        <ele>817.5</ele>
        <time>2025-05-18T08:36:23.000Z</time>
      </trkpt>
      <trkpt lat="43.63108" lon="6.24492">
        <ele>818.6</ele>
        <time>2025-05-18T08:36:37.000Z</time>
      </trkpt>
      <trkpt lat="43.63111" lon="6.24503">
        <ele>819.5</ele>
        <time>2025-05-18T08:36:48.000Z</time>
      </trkpt>
      <trkpt lat="43.6312" lon="6.24506">
        <ele>821.1</ele>
        <time>2025-05-18T08:37:02.000Z</time>
      </trkpt>
      <trkpt lat="43.63128" lon="6.24513">
        <ele>823.1</ele>
        <time>2025-05-18T08:37:16.000Z</time>
      </trkpt>
      <trkpt lat="43.63135" lon="6.24521">
        <ele>824.6</ele>
        <time>2025-05-18T08:37:32.000Z</time>
      </trkpt>
      <trkpt lat="43.63142" lon="6.2453">
        <ele>825.4</ele>
        <time>2025-05-18T08:37:44.000Z</time>
      </trkpt>
      <trkpt lat="43.63143" lon="6.24542">
        <ele>826.3</ele>
        <time>2025-05-18T08:37:55.000Z</time>
      </trkpt>
      <trkpt lat="43.63146" lon="6.24555">
        <ele>827.1</ele>
        <time>2025-05-18T08:38:07.000Z</time>
      </trkpt>
      <trkpt lat="43.63154" lon="6.24561">
        <ele>827.9</ele>
        <time>2025-05-18T08:38:20.000Z</time>
      </trkpt>
      <trkpt lat="43.63163" lon="6.24565">
        <ele>828.7</ele>
        <time>2025-05-18T08:38:32.000Z</time>
      </trkpt>
      <trkpt lat="43.63171" lon="6.24572">
        <ele>829.7</ele>
        <time>2025-05-18T08:38:43.000Z</time>
      </trkpt>
      <trkpt lat="43.63179" lon="6.24579">
        <ele>830.3</ele>
        <time>2025-05-18T08:38:52.000Z</time>
      </trkpt>
      <trkpt lat="43.63188" lon="6.24586">
        <ele>830.5</ele>
        <time>2025-05-18T08:39:02.000Z</time>
      </trkpt>
      <trkpt lat="43.63197" lon="6.2459">
        <ele>830.4</ele>
        <time>2025-05-18T08:39:12.000Z</time>
      </trkpt>
      <trkpt lat="43.63205" lon="6.24596">
        <ele>830.5</ele>
        <time>2025-05-18T08:39:23.000Z</time>
      </trkpt>
      <trkpt lat="43.63212" lon="6.24604">
        <ele>830.6</ele>
        <time>2025-05-18T08:39:33.000Z</time>
      </trkpt>
      <trkpt lat="43.63222" lon="6.24606">
        <ele>830.6</ele>
        <time>2025-05-18T08:39:41.000Z</time>
      </trkpt>
      <trkpt lat="43.63231" lon="6.24613">
        <ele>830.8</ele>
        <time>2025-05-18T08:39:54.000Z</time>
      </trkpt>
      <trkpt lat="43.6324" lon="6.24615">
        <ele>831</ele>
        <time>2025-05-18T08:40:04.000Z</time>
      </trkpt>
      <trkpt lat="43.63247" lon="6.24623">
        <ele>831.4</ele>
        <time>2025-05-18T08:40:15.000Z</time>
      </trkpt>
      <trkpt lat="43.63256" lon="6.24623">
        <ele>831.5</ele>
        <time>2025-05-18T08:41:51.000Z</time>
      </trkpt>
      <trkpt lat="43.63263" lon="6.24613">
        <ele>831.4</ele>
        <time>2025-05-18T08:42:21.000Z</time>
      </trkpt>
      <trkpt lat="43.63266" lon="6.24601">
        <ele>831.4</ele>
        <time>2025-05-18T08:42:30.000Z</time>
      </trkpt>
      <trkpt lat="43.63268" lon="6.24588">
        <ele>831.3</ele>
        <time>2025-05-18T08:42:40.000Z</time>
      </trkpt>
      <trkpt lat="43.63272" lon="6.24575">
        <ele>831.2</ele>
        <time>2025-05-18T08:42:49.000Z</time>
      </trkpt>
      <trkpt lat="43.63276" lon="6.24563">
        <ele>832</ele>
        <time>2025-05-18T08:43:29.000Z</time>
      </trkpt>
      <trkpt lat="43.63281" lon="6.24551">
        <ele>830.9</ele>
        <time>2025-05-18T08:43:38.000Z</time>
      </trkpt>
      <trkpt lat="43.63286" lon="6.24541">
        <ele>830.6</ele>
        <time>2025-05-18T08:43:46.000Z</time>
      </trkpt>
      <trkpt lat="43.63288" lon="6.24529">
        <ele>830.1</ele>
        <time>2025-05-18T08:43:55.000Z</time>
      </trkpt>
      <trkpt lat="43.63295" lon="6.2452">
        <ele>830.1</ele>
        <time>2025-05-18T08:44:11.000Z</time>
      </trkpt>
      <trkpt lat="43.63302" lon="6.24512">
        <ele>829.3</ele>
        <time>2025-05-18T08:44:21.000Z</time>
      </trkpt>
      <trkpt lat="43.63307" lon="6.24501">
        <ele>828.7</ele>
        <time>2025-05-18T08:45:00.000Z</time>
      </trkpt>
      <trkpt lat="43.63312" lon="6.24489">
        <ele>828.3</ele>
        <time>2025-05-18T08:45:09.000Z</time>
      </trkpt>
      <trkpt lat="43.63321" lon="6.24481">
        <ele>828</ele>
        <time>2025-05-18T08:45:16.000Z</time>
      </trkpt>
      <trkpt lat="43.6333" lon="6.24475">
        <ele>827.8</ele>
        <time>2025-05-18T08:45:22.000Z</time>
      </trkpt>
      <trkpt lat="43.63338" lon="6.2447">
        <ele>827.5</ele>
        <time>2025-05-18T08:45:29.000Z</time>
      </trkpt>
      <trkpt lat="43.63347" lon="6.24468">
        <ele>827.1</ele>
        <time>2025-05-18T08:45:36.000Z</time>
      </trkpt>
      <trkpt lat="43.63355" lon="6.2446">
        <ele>826.5</ele>
        <time>2025-05-18T08:45:56.000Z</time>
      </trkpt>
      <trkpt lat="43.63361" lon="6.24451">
        <ele>825.6</ele>
        <time>2025-05-18T08:46:03.000Z</time>
      </trkpt>
      <trkpt lat="43.63369" lon="6.24441">
        <ele>824.8</ele>
        <time>2025-05-18T08:46:11.000Z</time>
      </trkpt>
      <trkpt lat="43.63376" lon="6.24433">
        <ele>824.2</ele>
        <time>2025-05-18T08:46:17.000Z</time>
      </trkpt>
      <trkpt lat="43.63384" lon="6.24426">
        <ele>823.7</ele>
        <time>2025-05-18T08:46:24.000Z</time>
      </trkpt>
      <trkpt lat="43.63392" lon="6.24418">
        <ele>823.2</ele>
        <time>2025-05-18T08:46:31.000Z</time>
      </trkpt>
      <trkpt lat="43.63397" lon="6.24405">
        <ele>822.8</ele>
        <time>2025-05-18T08:46:38.000Z</time>
      </trkpt>
      <trkpt lat="43.63396" lon="6.24393">
        <ele>822.5</ele>
        <time>2025-05-18T08:46:45.000Z</time>
      </trkpt>
      <trkpt lat="43.63397" lon="6.2438">
        <ele>822.2</ele>
        <time>2025-05-18T08:46:52.000Z</time>
      </trkpt>
      <trkpt lat="43.63401" lon="6.24368">
        <ele>821.8</ele>
        <time>2025-05-18T08:46:59.000Z</time>
      </trkpt>
      <trkpt lat="43.63404" lon="6.24356">
        <ele>821.4</ele>
        <time>2025-05-18T08:47:07.000Z</time>
      </trkpt>
      <trkpt lat="43.63403" lon="6.24343">
        <ele>820.7</ele>
        <time>2025-05-18T08:48:29.000Z</time>
      </trkpt>
      <trkpt lat="43.63397" lon="6.24333">
        <ele>820.4</ele>
        <time>2025-05-18T08:48:42.000Z</time>
      </trkpt>
      <trkpt lat="43.63391" lon="6.24324">
        <ele>819.9</ele>
        <time>2025-05-18T08:48:53.000Z</time>
      </trkpt>
      <trkpt lat="43.63386" lon="6.24313">
        <ele>819.3</ele>
        <time>2025-05-18T08:49:05.000Z</time>
      </trkpt>
      <trkpt lat="43.6338" lon="6.24305">
        <ele>818.7</ele>
        <time>2025-05-18T08:49:18.000Z</time>
      </trkpt>
      <trkpt lat="43.63375" lon="6.24293">
        <ele>817.6</ele>
        <time>2025-05-18T08:49:33.000Z</time>
      </trkpt>
      <trkpt lat="43.63373" lon="6.2428">
        <ele>815.9</ele>
        <time>2025-05-18T08:49:59.000Z</time>
      </trkpt>
      <trkpt lat="43.63367" lon="6.2427">
        <ele>814.6</ele>
        <time>2025-05-18T08:50:13.000Z</time>
      </trkpt>
      <trkpt lat="43.63363" lon="6.24259">
        <ele>813.4</ele>
        <time>2025-05-18T08:50:23.000Z</time>
      </trkpt>
      <trkpt lat="43.63354" lon="6.24258">
        <ele>811.9</ele>
        <time>2025-05-18T08:50:35.000Z</time>
      </trkpt>
      <trkpt lat="43.63346" lon="6.24252">
        <ele>810.6</ele>
        <time>2025-05-18T08:50:49.000Z</time>
      </trkpt>
      <trkpt lat="43.63338" lon="6.24247">
        <ele>809.5</ele>
        <time>2025-05-18T08:51:01.000Z</time>
      </trkpt>
      <trkpt lat="43.63332" lon="6.24236">
        <ele>806.8</ele>
        <time>2025-05-18T08:51:20.000Z</time>
      </trkpt>
      <trkpt lat="43.63327" lon="6.24225">
        <ele>805</ele>
        <time>2025-05-18T08:51:38.000Z</time>
      </trkpt>
      <trkpt lat="43.6332" lon="6.24218">
        <ele>803.1</ele>
        <time>2025-05-18T08:51:51.000Z</time>
      </trkpt>
      <trkpt lat="43.63312" lon="6.24211">
        <ele>801.2</ele>
        <time>2025-05-18T08:52:04.000Z</time>
      </trkpt>
      <trkpt lat="43.63306" lon="6.24201">
        <ele>798</ele>
        <time>2025-05-18T08:52:20.000Z</time>
      </trkpt>
      <trkpt lat="43.63307" lon="6.24189">
        <ele>796.2</ele>
        <time>2025-05-18T08:52:33.000Z</time>
      </trkpt>
      <trkpt lat="43.63307" lon="6.24176">
        <ele>795.1</ele>
        <time>2025-05-18T08:52:44.000Z</time>
      </trkpt>
      <trkpt lat="43.63304" lon="6.24163">
        <ele>795</ele>
        <time>2025-05-18T08:52:53.000Z</time>
      </trkpt>
      <trkpt lat="43.63302" lon="6.2415">
        <ele>794.7</ele>
        <time>2025-05-18T08:53:05.000Z</time>
      </trkpt>
      <trkpt lat="43.63301" lon="6.24137">
        <ele>794.5</ele>
        <time>2025-05-18T08:53:13.000Z</time>
      </trkpt>
      <trkpt lat="43.63303" lon="6.24125">
        <ele>793.8</ele>
        <time>2025-05-18T08:53:24.000Z</time>
      </trkpt>
      <trkpt lat="43.633" lon="6.24112">
        <ele>792.5</ele>
        <time>2025-05-18T08:53:36.000Z</time>
      </trkpt>
      <trkpt lat="43.63291" lon="6.24111">
        <ele>791.3</ele>
        <time>2025-05-18T08:53:48.000Z</time>
      </trkpt>
      <trkpt lat="43.63285" lon="6.241">
        <ele>788.1</ele>
        <time>2025-05-18T08:54:10.000Z</time>
      </trkpt>
      <trkpt lat="43.6328" lon="6.2409">
        <ele>786.3</ele>
        <time>2025-05-18T08:54:22.000Z</time>
      </trkpt>
      <trkpt lat="43.63273" lon="6.24081">
        <ele>784.3</ele>
        <time>2025-05-18T08:54:36.000Z</time>
      </trkpt>
      <trkpt lat="43.63264" lon="6.24076">
        <ele>782.1</ele>
        <time>2025-05-18T08:54:50.000Z</time>
      </trkpt>
      <trkpt lat="43.6326" lon="6.24065">
        <ele>778.5</ele>
        <time>2025-05-18T08:55:15.000Z</time>
      </trkpt>
      <trkpt lat="43.63251" lon="6.24061">
        <ele>776</ele>
        <time>2025-05-18T08:55:27.000Z</time>
      </trkpt>
      <trkpt lat="43.63244" lon="6.24054">
        <ele>773.5</ele>
        <time>2025-05-18T08:55:40.000Z</time>
      </trkpt>
      <trkpt lat="43.63235" lon="6.24048">
        <ele>771.2</ele>
        <time>2025-05-18T08:55:54.000Z</time>
      </trkpt>
      <trkpt lat="43.63234" lon="6.24035">
        <ele>767.7</ele>
        <time>2025-05-18T08:56:15.000Z</time>
      </trkpt>
      <trkpt lat="43.63227" lon="6.24026">
        <ele>765</ele>
        <time>2025-05-18T08:56:30.000Z</time>
      </trkpt>
      <trkpt lat="43.63219" lon="6.24022">
        <ele>762.9</ele>
        <time>2025-05-18T08:56:45.000Z</time>
      </trkpt>
      <trkpt lat="43.6321" lon="6.24016">
        <ele>760.5</ele>
        <time>2025-05-18T08:57:02.000Z</time>
      </trkpt>
      <trkpt lat="43.63202" lon="6.24013">
        <ele>758.3</ele>
        <time>2025-05-18T08:57:42.000Z</time>
      </trkpt>
      <trkpt lat="43.63194" lon="6.24006">
        <ele>753.3</ele>
        <time>2025-05-18T08:58:21.000Z</time>
      </trkpt>
      <trkpt lat="43.63185" lon="6.24001">
        <ele>751.3</ele>
        <time>2025-05-18T08:58:37.000Z</time>
      </trkpt>
      <trkpt lat="43.63176" lon="6.24">
        <ele>745.4</ele>
        <time>2025-05-18T08:59:25.000Z</time>
      </trkpt>
      <trkpt lat="43.63171" lon="6.2399">
        <ele>741.9</ele>
        <time>2025-05-18T08:59:51.000Z</time>
      </trkpt>
      <trkpt lat="43.63167" lon="6.23979">
        <ele>738.8</ele>
        <time>2025-05-18T09:00:13.000Z</time>
      </trkpt>
      <trkpt lat="43.63159" lon="6.23973">
        <ele>736.7</ele>
        <time>2025-05-18T09:00:26.000Z</time>
      </trkpt>
      <trkpt lat="43.63151" lon="6.23967">
        <ele>733.9</ele>
        <time>2025-05-18T09:01:12.000Z</time>
      </trkpt>
      <trkpt lat="43.6316" lon="6.23962">
        <ele>729.6</ele>
        <time>2025-05-18T09:01:40.000Z</time>
      </trkpt>
      <trkpt lat="43.63156" lon="6.2395">
        <ele>727.8</ele>
        <time>2025-05-18T09:01:53.000Z</time>
      </trkpt>
      <trkpt lat="43.63149" lon="6.23942">
        <ele>725.1</ele>
        <time>2025-05-18T09:02:08.000Z</time>
      </trkpt>
      <trkpt lat="43.63143" lon="6.23932">
        <ele>722.7</ele>
        <time>2025-05-18T09:02:28.000Z</time>
      </trkpt>
      <trkpt lat="43.63137" lon="6.23924">
        <ele>720.5</ele>
        <time>2025-05-18T09:02:40.000Z</time>
      </trkpt>
      <trkpt lat="43.63131" lon="6.23913">
        <ele>716.7</ele>
        <time>2025-05-18T09:02:58.000Z</time>
      </trkpt>
      <trkpt lat="43.63124" lon="6.23904">
        <ele>713.8</ele>
        <time>2025-05-18T09:03:16.000Z</time>
      </trkpt>
      <trkpt lat="43.63119" lon="6.23893">
        <ele>708.3</ele>
        <time>2025-05-18T09:03:49.000Z</time>
      </trkpt>
      <trkpt lat="43.63111" lon="6.23886">
        <ele>706.8</ele>
        <time>2025-05-18T09:04:02.000Z</time>
      </trkpt>
      <trkpt lat="43.63101" lon="6.23886">
        <ele>705.4</ele>
        <time>2025-05-18T09:04:16.000Z</time>
      </trkpt>
      <trkpt lat="43.63101" lon="6.23873">
        <ele>697.5</ele>
        <time>2025-05-18T09:05:35.000Z</time>
      </trkpt>
      <trkpt lat="43.63101" lon="6.23861">
        <ele>693.9</ele>
        <time>2025-05-18T09:06:16.000Z</time>
      </trkpt>
      <trkpt lat="43.63099" lon="6.23848">
        <ele>687.7</ele>
        <time>2025-05-18T09:07:26.000Z</time>
      </trkpt>
      <trkpt lat="43.63099" lon="6.23835">
        <ele>684</ele>
        <time>2025-05-18T09:08:02.000Z</time>
      </trkpt>
      <trkpt lat="43.63103" lon="6.23823">
        <ele>680.8</ele>
        <time>2025-05-18T09:08:29.000Z</time>
      </trkpt>
      <trkpt lat="43.63096" lon="6.23815">
        <ele>678.1</ele>
        <time>2025-05-18T09:08:47.000Z</time>
      </trkpt>
      <trkpt lat="43.6309" lon="6.23807">
        <ele>675.5</ele>
        <time>2025-05-18T09:09:10.000Z</time>
      </trkpt>
      <trkpt lat="43.63083" lon="6.23797">
        <ele>673.1</ele>
        <time>2025-05-18T09:10:09.000Z</time>
      </trkpt>
      <trkpt lat="43.63076" lon="6.23788">
        <ele>672.5</ele>
        <time>2025-05-18T09:10:18.000Z</time>
      </trkpt>
      <trkpt lat="43.63066" lon="6.23783">
        <ele>670.9</ele>
        <time>2025-05-18T09:10:33.000Z</time>
      </trkpt>
      <trkpt lat="43.63057" lon="6.23781">
        <ele>669.7</ele>
        <time>2025-05-18T09:11:03.000Z</time>
      </trkpt>
      <trkpt lat="43.63049" lon="6.23776">
        <ele>669</ele>
        <time>2025-05-18T09:11:15.000Z</time>
      </trkpt>
      <trkpt lat="43.63046" lon="6.23765">
        <ele>663</ele>
        <time>2025-05-18T09:12:10.000Z</time>
      </trkpt>
      <trkpt lat="43.63036" lon="6.23761">
        <ele>661.3</ele>
        <time>2025-05-18T09:12:53.000Z</time>
      </trkpt>
      <trkpt lat="43.63037" lon="6.23748">
        <ele>657.9</ele>
        <time>2025-05-18T09:13:16.000Z</time>
      </trkpt>
      <trkpt lat="43.6303" lon="6.23739">
        <ele>656.7</ele>
        <time>2025-05-18T09:13:26.000Z</time>
      </trkpt>
      <trkpt lat="43.63023" lon="6.2373">
        <ele>655.6</ele>
        <time>2025-05-18T09:13:36.000Z</time>
      </trkpt>
      <trkpt lat="43.63015" lon="6.23724">
        <ele>651.9</ele>
        <time>2025-05-18T09:14:47.000Z</time>
      </trkpt>
      <trkpt lat="43.63006" lon="6.23724">
        <ele>650.7</ele>
        <time>2025-05-18T09:16:31.000Z</time>
      </trkpt>
      <trkpt lat="43.62997" lon="6.23722">
        <ele>648.9</ele>
        <time>2025-05-18T09:17:17.000Z</time>
      </trkpt>
      <trkpt lat="43.62988" lon="6.23717">
        <ele>647.1</ele>
        <time>2025-05-18T09:17:29.000Z</time>
      </trkpt>
      <trkpt lat="43.6298" lon="6.2371">
        <ele>645.8</ele>
        <time>2025-05-18T09:17:35.000Z</time>
      </trkpt>
      <trkpt lat="43.62972" lon="6.23703">
        <ele>642.9</ele>
        <time>2025-05-18T09:17:50.000Z</time>
      </trkpt>
      <trkpt lat="43.62963" lon="6.23699">
        <ele>640.6</ele>
        <time>2025-05-18T09:18:04.000Z</time>
      </trkpt>
      <trkpt lat="43.62954" lon="6.23696">
        <ele>638.1</ele>
        <time>2025-05-18T09:18:21.000Z</time>
      </trkpt>
      <trkpt lat="43.62948" lon="6.23686">
        <ele>635.8</ele>
        <time>2025-05-18T09:18:35.000Z</time>
      </trkpt>
      <trkpt lat="43.62953" lon="6.23674">
        <ele>633.9</ele>
        <time>2025-05-18T09:18:46.000Z</time>
      </trkpt>
      <trkpt lat="43.62955" lon="6.23661">
        <ele>632.2</ele>
        <time>2025-05-18T09:18:56.000Z</time>
      </trkpt>
      <trkpt lat="43.62949" lon="6.23651">
        <ele>630.9</ele>
        <time>2025-05-18T09:19:03.000Z</time>
      </trkpt>
      <trkpt lat="43.62952" lon="6.23639">
        <ele>628.7</ele>
        <time>2025-05-18T09:19:19.000Z</time>
      </trkpt>
      <trkpt lat="43.62958" lon="6.23628">
        <ele>627.9</ele>
        <time>2025-05-18T09:19:28.000Z</time>
      </trkpt>
      <trkpt lat="43.62965" lon="6.2362">
        <ele>626</ele>
        <time>2025-05-18T09:19:43.000Z</time>
      </trkpt>
      <trkpt lat="43.62974" lon="6.23615">
        <ele>623.8</ele>
        <time>2025-05-18T09:19:52.000Z</time>
      </trkpt>
      <trkpt lat="43.62982" lon="6.23609">
        <ele>619.7</ele>
        <time>2025-05-18T09:20:15.000Z</time>
      </trkpt>
      <trkpt lat="43.62992" lon="6.23608">
        <ele>618</ele>
        <time>2025-05-18T09:20:26.000Z</time>
      </trkpt>
      <trkpt lat="43.63" lon="6.23602">
        <ele>615.5</ele>
        <time>2025-05-18T09:20:48.000Z</time>
      </trkpt>
      <trkpt lat="43.63009" lon="6.23596">
        <ele>613.8</ele>
        <time>2025-05-18T09:21:13.000Z</time>
      </trkpt>
      <trkpt lat="43.63005" lon="6.23584">
        <ele>613.2</ele>
        <time>2025-05-18T09:21:39.000Z</time>
      </trkpt>
      <trkpt lat="43.62997" lon="6.23575">
        <ele>612.9</ele>
        <time>2025-05-18T09:21:46.000Z</time>
      </trkpt>
      <trkpt lat="43.6299" lon="6.23568">
        <ele>611.2</ele>
        <time>2025-05-18T09:22:01.000Z</time>
      </trkpt>
      <trkpt lat="43.62984" lon="6.23557">
        <ele>609.9</ele>
        <time>2025-05-18T09:22:13.000Z</time>
      </trkpt>
      <trkpt lat="43.62978" lon="6.23548">
        <ele>608.1</ele>
        <time>2025-05-18T09:22:27.000Z</time>
      </trkpt>
      <trkpt lat="43.62971" lon="6.23539">
        <ele>606.5</ele>
        <time>2025-05-18T09:22:41.000Z</time>
      </trkpt>
      <trkpt lat="43.62965" lon="6.23528">
        <ele>604.5</ele>
        <time>2025-05-18T09:22:55.000Z</time>
      </trkpt>
      <trkpt lat="43.62959" lon="6.23519">
        <ele>603.5</ele>
        <time>2025-05-18T09:23:03.000Z</time>
      </trkpt>
      <trkpt lat="43.62954" lon="6.23508">
        <ele>602.2</ele>
        <time>2025-05-18T09:23:14.000Z</time>
      </trkpt>
      <trkpt lat="43.62951" lon="6.23496">
        <ele>601.1</ele>
        <time>2025-05-18T09:23:27.000Z</time>
      </trkpt>
      <trkpt lat="43.62947" lon="6.23483">
        <ele>600.4</ele>
        <time>2025-05-18T09:23:36.000Z</time>
      </trkpt>
      <trkpt lat="43.62943" lon="6.23473">
        <ele>599.6</ele>
        <time>2025-05-18T09:23:55.000Z</time>
      </trkpt>
      <trkpt lat="43.62951" lon="6.23478">
        <ele>599.1</ele>
        <time>2025-05-18T09:24:11.000Z</time>
      </trkpt>
      <trkpt lat="43.6296" lon="6.23474">
        <ele>599.4</ele>
        <time>2025-05-18T09:24:31.000Z</time>
      </trkpt>
      <trkpt lat="43.62956" lon="6.23461">
        <ele>599.7</ele>
        <time>2025-05-18T09:25:07.000Z</time>
      </trkpt>
      <trkpt lat="43.62969" lon="6.23465">
        <ele>601</ele>
        <time>2025-05-18T09:26:49.000Z</time>
      </trkpt>
      <trkpt lat="43.62968" lon="6.23466">
        <ele>600.7</ele>
        <time>2025-05-18T09:26:50.000Z</time>
      </trkpt>
      <trkpt lat="43.62968" lon="6.23465">
        <ele>600.6</ele>
        <time>2025-05-18T09:26:51.000Z</time>
      </trkpt>
      <trkpt lat="43.62967" lon="6.23465">
        <ele>600.4</ele>
        <time>2025-05-18T09:26:52.000Z</time>
      </trkpt>
      <trkpt lat="43.62959" lon="6.23469">
        <ele>599.8</ele>
        <time>2025-05-18T09:27:02.000Z</time>
      </trkpt>
      <trkpt lat="43.6295" lon="6.2347">
        <ele>599.2</ele>
        <time>2025-05-18T09:27:28.000Z</time>
      </trkpt>
      <trkpt lat="43.62941" lon="6.23473">
        <ele>598.6</ele>
        <time>2025-05-18T09:27:39.000Z</time>
      </trkpt>
      <trkpt lat="43.6294" lon="6.2346">
        <ele>598.3</ele>
        <time>2025-05-18T09:27:53.000Z</time>
      </trkpt>
      <trkpt lat="43.62939" lon="6.23447">
        <ele>597.5</ele>
        <time>2025-05-18T09:28:04.000Z</time>
      </trkpt>
      <trkpt lat="43.62943" lon="6.23435">
        <ele>593.9</ele>
        <time>2025-05-18T09:28:30.000Z</time>
      </trkpt>
      <trkpt lat="43.62949" lon="6.23425">
        <ele>592.8</ele>
        <time>2025-05-18T09:28:40.000Z</time>
      </trkpt>
      <trkpt lat="43.62953" lon="6.23412">
        <ele>590.5</ele>
        <time>2025-05-18T09:28:52.000Z</time>
      </trkpt>
      <trkpt lat="43.62959" lon="6.23401">
        <ele>588.9</ele>
        <time>2025-05-18T09:29:01.000Z</time>
      </trkpt>
      <trkpt lat="43.62962" lon="6.23388">
        <ele>587</ele>
        <time>2025-05-18T09:29:13.000Z</time>
      </trkpt>
      <trkpt lat="43.62959" lon="6.23376">
        <ele>584.2</ele>
        <time>2025-05-18T09:29:29.000Z</time>
      </trkpt>
      <trkpt lat="43.62961" lon="6.23364">
        <ele>581.8</ele>
        <time>2025-05-18T09:29:43.000Z</time>
      </trkpt>
      <trkpt lat="43.62961" lon="6.23351">
        <ele>579.2</ele>
        <time>2025-05-18T09:29:57.000Z</time>
      </trkpt>
      <trkpt lat="43.62964" lon="6.23339">
        <ele>574.6</ele>
        <time>2025-05-18T09:30:22.000Z</time>
      </trkpt>
      <trkpt lat="43.62962" lon="6.23325">
        <ele>572.9</ele>
        <time>2025-05-18T09:30:33.000Z</time>
      </trkpt>
      <trkpt lat="43.62964" lon="6.23313">
        <ele>570.9</ele>
        <time>2025-05-18T09:30:46.000Z</time>
      </trkpt>
      <trkpt lat="43.6296" lon="6.233">
        <ele>569.1</ele>
        <time>2025-05-18T09:30:59.000Z</time>
      </trkpt>
      <trkpt lat="43.62964" lon="6.23287">
        <ele>566.5</ele>
        <time>2025-05-18T09:31:14.000Z</time>
      </trkpt>
      <trkpt lat="43.62963" lon="6.23273">
        <ele>564.2</ele>
        <time>2025-05-18T09:31:28.000Z</time>
      </trkpt>
      <trkpt lat="43.6296" lon="6.23261">
        <ele>562.8</ele>
        <time>2025-05-18T09:31:38.000Z</time>
      </trkpt>
      <trkpt lat="43.62961" lon="6.23247">
        <ele>561.1</ele>
        <time>2025-05-18T09:31:49.000Z</time>
      </trkpt>
      <trkpt lat="43.62959" lon="6.23234">
        <ele>559.8</ele>
        <time>2025-05-18T09:32:03.000Z</time>
      </trkpt>
      <trkpt lat="43.62956" lon="6.23222">
        <ele>559.7</ele>
        <time>2025-05-18T09:32:27.000Z</time>
      </trkpt>
      <trkpt lat="43.62964" lon="6.23215">
        <ele>559</ele>
        <time>2025-05-18T09:32:39.000Z</time>
      </trkpt>
      <trkpt lat="43.62973" lon="6.23209">
        <ele>559.3</ele>
        <time>2025-05-18T09:32:51.000Z</time>
      </trkpt>
      <trkpt lat="43.62979" lon="6.232">
        <ele>560.7</ele>
        <time>2025-05-18T09:33:32.000Z</time>
      </trkpt>
      <trkpt lat="43.62974" lon="6.23188">
        <ele>561.1</ele>
        <time>2025-05-18T09:34:09.000Z</time>
      </trkpt>
      <trkpt lat="43.62981" lon="6.23197">
        <ele>560.6</ele>
        <time>2025-05-18T09:35:36.000Z</time>
      </trkpt>
      <trkpt lat="43.62981" lon="6.23184">
        <ele>560.8</ele>
        <time>2025-05-18T09:40:52.000Z</time>
      </trkpt>
      <trkpt lat="43.62976" lon="6.23195">
        <ele>560.5</ele>
        <time>2025-05-18T09:41:54.000Z</time>
      </trkpt>
      <trkpt lat="43.62968" lon="6.23202">
        <ele>560.8</ele>
        <time>2025-05-18T09:44:01.000Z</time>
      </trkpt>
      <trkpt lat="43.62959" lon="6.23207">
        <ele>560.4</ele>
        <time>2025-05-18T09:44:08.000Z</time>
      </trkpt>
      <trkpt lat="43.62951" lon="6.23216">
        <ele>559.8</ele>
        <time>2025-05-18T09:44:14.000Z</time>
      </trkpt>
      <trkpt lat="43.62951" lon="6.23228">
        <ele>559.4</ele>
        <time>2025-05-18T09:44:26.000Z</time>
      </trkpt>
      <trkpt lat="43.62944" lon="6.23236">
        <ele>559.3</ele>
        <time>2025-05-18T09:44:38.000Z</time>
      </trkpt>
      <trkpt lat="43.62935" lon="6.23241">
        <ele>559</ele>
        <time>2025-05-18T09:44:51.000Z</time>
      </trkpt>
      <trkpt lat="43.62926" lon="6.23238">
        <ele>558.8</ele>
        <time>2025-05-18T09:45:02.000Z</time>
      </trkpt>
      <trkpt lat="43.62919" lon="6.23246">
        <ele>558.7</ele>
        <time>2025-05-18T09:45:13.000Z</time>
      </trkpt>
      <trkpt lat="43.62911" lon="6.2325">
        <ele>558.7</ele>
        <time>2025-05-18T09:45:34.000Z</time>
      </trkpt>
      <trkpt lat="43.62902" lon="6.23242">
        <ele>558.7</ele>
        <time>2025-05-18T09:46:02.000Z</time>
      </trkpt>
      <trkpt lat="43.62901" lon="6.23255">
        <ele>559</ele>
        <time>2025-05-18T09:47:50.000Z</time>
      </trkpt>
      <trkpt lat="43.62902" lon="6.23243">
        <ele>559.7</ele>
        <time>2025-05-18T09:49:07.000Z</time>
      </trkpt>
      <trkpt lat="43.62901" lon="6.23229">
        <ele>560</ele>
        <time>2025-05-18T09:51:02.000Z</time>
      </trkpt>
      <trkpt lat="43.62908" lon="6.23238">
        <ele>559.9</ele>
        <time>2025-05-18T09:51:48.000Z</time>
      </trkpt>
      <trkpt lat="43.62899" lon="6.23235">
        <ele>559.9</ele>
        <time>2025-05-18T09:51:57.000Z</time>
      </trkpt>
      <trkpt lat="43.6289" lon="6.23238">
        <ele>559.8</ele>
        <time>2025-05-18T09:52:06.000Z</time>
      </trkpt>
      <trkpt lat="43.62883" lon="6.23247">
        <ele>559.3</ele>
        <time>2025-05-18T09:52:46.000Z</time>
      </trkpt>
      <trkpt lat="43.62874" lon="6.23248">
        <ele>559.5</ele>
        <time>2025-05-18T09:53:03.000Z</time>
      </trkpt>
      <trkpt lat="43.62867" lon="6.23256">
        <ele>561.8</ele>
        <time>2025-05-18T09:54:22.000Z</time>
      </trkpt>
      <trkpt lat="43.62858" lon="6.23258">
        <ele>561.9</ele>
        <time>2025-05-18T09:54:35.000Z</time>
      </trkpt>
      <trkpt lat="43.62849" lon="6.23259">
        <ele>561.5</ele>
        <time>2025-05-18T09:55:00.000Z</time>
      </trkpt>
      <trkpt lat="43.62839" lon="6.2326">
        <ele>561.4</ele>
        <time>2025-05-18T09:55:12.000Z</time>
      </trkpt>
      <trkpt lat="43.6283" lon="6.23257">
        <ele>559.8</ele>
        <time>2025-05-18T09:55:43.000Z</time>
      </trkpt>
      <trkpt lat="43.62821" lon="6.23251">
        <ele>558.6</ele>
        <time>2025-05-18T09:55:53.000Z</time>
      </trkpt>
      <trkpt lat="43.62811" lon="6.23251">
        <ele>555.5</ele>
        <time>2025-05-18T09:56:20.000Z</time>
      </trkpt>
      <trkpt lat="43.62802" lon="6.23249">
        <ele>553.7</ele>
        <time>2025-05-18T09:56:37.000Z</time>
      </trkpt>
      <trkpt lat="43.62806" lon="6.23238">
        <ele>551</ele>
        <time>2025-05-18T09:57:50.000Z</time>
      </trkpt>
      <trkpt lat="43.6281" lon="6.23226">
        <ele>548.5</ele>
        <time>2025-05-18T09:58:07.000Z</time>
      </trkpt>
      <trkpt lat="43.62813" lon="6.23213">
        <ele>546.1</ele>
        <time>2025-05-18T09:58:26.000Z</time>
      </trkpt>
      <trkpt lat="43.6281" lon="6.23201">
        <ele>544.6</ele>
        <time>2025-05-18T09:58:37.000Z</time>
      </trkpt>
      <trkpt lat="43.62808" lon="6.23188">
        <ele>542.7</ele>
        <time>2025-05-18T09:58:50.000Z</time>
      </trkpt>
      <trkpt lat="43.62809" lon="6.23176">
        <ele>540.1</ele>
        <time>2025-05-18T09:59:12.000Z</time>
      </trkpt>
      <trkpt lat="43.62807" lon="6.23162">
        <ele>537</ele>
        <time>2025-05-18T09:59:34.000Z</time>
      </trkpt>
      <trkpt lat="43.62808" lon="6.23149">
        <ele>534.8</ele>
        <time>2025-05-18T09:59:54.000Z</time>
      </trkpt>
      <trkpt lat="43.62803" lon="6.23138">
        <ele>532.9</ele>
        <time>2025-05-18T10:00:23.000Z</time>
      </trkpt>
      <trkpt lat="43.62799" lon="6.23127">
        <ele>531.5</ele>
        <time>2025-05-18T10:00:34.000Z</time>
      </trkpt>
      <trkpt lat="43.62791" lon="6.2312">
        <ele>529.7</ele>
        <time>2025-05-18T10:00:46.000Z</time>
      </trkpt>
      <trkpt lat="43.62786" lon="6.23109">
        <ele>527.4</ele>
        <time>2025-05-18T10:03:16.000Z</time>
      </trkpt>
      <trkpt lat="43.62776" lon="6.23109">
        <ele>527</ele>
        <time>2025-05-18T10:03:33.000Z</time>
      </trkpt>
      <trkpt lat="43.62768" lon="6.231">
        <ele>525.9</ele>
        <time>2025-05-18T10:03:41.000Z</time>
      </trkpt>
      <trkpt lat="43.62759" lon="6.23096">
        <ele>523.2</ele>
        <time>2025-05-18T10:03:52.000Z</time>
      </trkpt>
      <trkpt lat="43.62749" lon="6.23096">
        <ele>521.3</ele>
        <time>2025-05-18T10:04:09.000Z</time>
      </trkpt>
      <trkpt lat="43.62741" lon="6.23093">
        <ele>520.8</ele>
        <time>2025-05-18T10:04:22.000Z</time>
      </trkpt>
      <trkpt lat="43.62735" lon="6.23081">
        <ele>517.9</ele>
        <time>2025-05-18T10:04:47.000Z</time>
      </trkpt>
      <trkpt lat="43.62733" lon="6.23069">
        <ele>516</ele>
        <time>2025-05-18T10:05:01.000Z</time>
      </trkpt>
      <trkpt lat="43.62729" lon="6.23058">
        <ele>515.9</ele>
        <time>2025-05-18T10:05:20.000Z</time>
      </trkpt>
      <trkpt lat="43.62732" lon="6.23071">
        <ele>516.6</ele>
        <time>2025-05-18T10:05:43.000Z</time>
      </trkpt>
      <trkpt lat="43.62731" lon="6.23058">
        <ele>515.8</ele>
        <time>2025-05-18T10:06:35.000Z</time>
      </trkpt>
      <trkpt lat="43.62722" lon="6.23055">
        <ele>514.7</ele>
        <time>2025-05-18T10:06:45.000Z</time>
      </trkpt>
      <trkpt lat="43.62717" lon="6.23044">
        <ele>513.3</ele>
        <time>2025-05-18T10:06:58.000Z</time>
      </trkpt>
      <trkpt lat="43.62708" lon="6.2304">
        <ele>511.3</ele>
        <time>2025-05-18T10:07:24.000Z</time>
      </trkpt>
      <trkpt lat="43.62699" lon="6.23044">
        <ele>511.1</ele>
        <time>2025-05-18T10:07:32.000Z</time>
      </trkpt>
      <trkpt lat="43.62691" lon="6.23036">
        <ele>510.5</ele>
        <time>2025-05-18T10:07:43.000Z</time>
      </trkpt>
      <trkpt lat="43.62693" lon="6.23024">
        <ele>508.5</ele>
        <time>2025-05-18T10:08:08.000Z</time>
      </trkpt>
      <trkpt lat="43.62684" lon="6.23019">
        <ele>507.3</ele>
        <time>2025-05-18T10:09:31.000Z</time>
      </trkpt>
      <trkpt lat="43.62679" lon="6.23008">
        <ele>506.2</ele>
        <time>2025-05-18T10:09:44.000Z</time>
      </trkpt>
      <trkpt lat="43.62675" lon="6.22995">
        <ele>505.4</ele>
        <time>2025-05-18T10:10:46.000Z</time>
      </trkpt>
      <trkpt lat="43.62675" lon="6.22982">
        <ele>504.3</ele>
        <time>2025-05-18T10:10:55.000Z</time>
      </trkpt>
      <trkpt lat="43.62676" lon="6.22969">
        <ele>503.2</ele>
        <time>2025-05-18T10:11:02.000Z</time>
      </trkpt>
      <trkpt lat="43.62669" lon="6.2296">
        <ele>501.1</ele>
        <time>2025-05-18T10:11:23.000Z</time>
      </trkpt>
      <trkpt lat="43.62659" lon="6.22956">
        <ele>500.4</ele>
        <time>2025-05-18T10:11:30.000Z</time>
      </trkpt>
      <trkpt lat="43.62651" lon="6.2295">
        <ele>499.6</ele>
        <time>2025-05-18T10:11:37.000Z</time>
      </trkpt>
      <trkpt lat="43.62645" lon="6.22941">
        <ele>498.6</ele>
        <time>2025-05-18T10:11:50.000Z</time>
      </trkpt>
      <trkpt lat="43.62639" lon="6.22929">
        <ele>497.9</ele>
        <time>2025-05-18T10:11:59.000Z</time>
      </trkpt>
      <trkpt lat="43.62634" lon="6.22918">
        <ele>497.2</ele>
        <time>2025-05-18T10:12:28.000Z</time>
      </trkpt>
      <trkpt lat="43.62626" lon="6.22913">
        <ele>497.1</ele>
        <time>2025-05-18T10:12:37.000Z</time>
      </trkpt>
      <trkpt lat="43.6262" lon="6.22903">
        <ele>497</ele>
        <time>2025-05-18T10:12:44.000Z</time>
      </trkpt>
      <trkpt lat="43.62614" lon="6.22894">
        <ele>496.6</ele>
        <time>2025-05-18T10:12:52.000Z</time>
      </trkpt>
      <trkpt lat="43.62606" lon="6.22886">
        <ele>496</ele>
        <time>2025-05-18T10:13:01.000Z</time>
      </trkpt>
      <trkpt lat="43.62602" lon="6.22874">
        <ele>495.6</ele>
        <time>2025-05-18T10:13:09.000Z</time>
      </trkpt>
      <trkpt lat="43.62595" lon="6.22864">
        <ele>495</ele>
        <time>2025-05-18T10:13:17.000Z</time>
      </trkpt>
      <trkpt lat="43.62593" lon="6.22851">
        <ele>494.5</ele>
        <time>2025-05-18T10:13:26.000Z</time>
      </trkpt>
      <trkpt lat="43.62586" lon="6.22841">
        <ele>494.2</ele>
        <time>2025-05-18T10:13:33.000Z</time>
      </trkpt>
      <trkpt lat="43.62578" lon="6.22835">
        <ele>493.8</ele>
        <time>2025-05-18T10:13:41.000Z</time>
      </trkpt>
      <trkpt lat="43.62571" lon="6.22827">
        <ele>493.6</ele>
        <time>2025-05-18T10:13:47.000Z</time>
      </trkpt>
      <trkpt lat="43.62563" lon="6.22819">
        <ele>493.2</ele>
        <time>2025-05-18T10:13:57.000Z</time>
      </trkpt>
      <trkpt lat="43.62555" lon="6.22813">
        <ele>492.7</ele>
        <time>2025-05-18T10:14:06.000Z</time>
      </trkpt>
      <trkpt lat="43.62547" lon="6.22806">
        <ele>492.3</ele>
        <time>2025-05-18T10:14:15.000Z</time>
      </trkpt>
      <trkpt lat="43.62539" lon="6.22799">
        <ele>492</ele>
        <time>2025-05-18T10:14:23.000Z</time>
      </trkpt>
      <trkpt lat="43.62531" lon="6.22792">
        <ele>491.6</ele>
        <time>2025-05-18T10:14:32.000Z</time>
      </trkpt>
      <trkpt lat="43.62525" lon="6.22782">
        <ele>491.1</ele>
        <time>2025-05-18T10:14:44.000Z</time>
      </trkpt>
      <trkpt lat="43.62517" lon="6.22777">
        <ele>490.8</ele>
        <time>2025-05-18T10:14:52.000Z</time>
      </trkpt>
      <trkpt lat="43.62509" lon="6.22771">
        <ele>490.4</ele>
        <time>2025-05-18T10:15:00.000Z</time>
      </trkpt>
      <trkpt lat="43.62501" lon="6.22764">
        <ele>490</ele>
        <time>2025-05-18T10:15:08.000Z</time>
      </trkpt>
      <trkpt lat="43.62494" lon="6.22757">
        <ele>489.7</ele>
        <time>2025-05-18T10:15:17.000Z</time>
      </trkpt>
      <trkpt lat="43.62486" lon="6.22749">
        <ele>489.4</ele>
        <time>2025-05-18T10:15:26.000Z</time>
      </trkpt>
      <trkpt lat="43.6248" lon="6.2274">
        <ele>489.3</ele>
        <time>2025-05-18T10:15:38.000Z</time>
      </trkpt>
      <trkpt lat="43.62474" lon="6.22728">
        <ele>489.2</ele>
        <time>2025-05-18T10:15:47.000Z</time>
      </trkpt>
      <trkpt lat="43.62469" lon="6.22719">
        <ele>489.1</ele>
        <time>2025-05-18T10:15:57.000Z</time>
      </trkpt>
      <trkpt lat="43.62461" lon="6.2271">
        <ele>489</ele>
        <time>2025-05-18T10:16:08.000Z</time>
      </trkpt>
      <trkpt lat="43.62455" lon="6.227">
        <ele>489</ele>
        <time>2025-05-18T10:16:19.000Z</time>
      </trkpt>
      <trkpt lat="43.62451" lon="6.22688">
        <ele>489.1</ele>
        <time>2025-05-18T10:16:31.000Z</time>
      </trkpt>
      <trkpt lat="43.62448" lon="6.22675">
        <ele>489.2</ele>
        <time>2025-05-18T10:16:41.000Z</time>
      </trkpt>
      <trkpt lat="43.62447" lon="6.22663">
        <ele>489.5</ele>
        <time>2025-05-18T10:16:54.000Z</time>
      </trkpt>
      <trkpt lat="43.62455" lon="6.22656">
        <ele>490</ele>
        <time>2025-05-18T10:17:07.000Z</time>
      </trkpt>
      <trkpt lat="43.62463" lon="6.22649">
        <ele>490.4</ele>
        <time>2025-05-18T10:17:24.000Z</time>
      </trkpt>
      <trkpt lat="43.62472" lon="6.22642">
        <ele>490.6</ele>
        <time>2025-05-18T10:17:33.000Z</time>
      </trkpt>
      <trkpt lat="43.6248" lon="6.22636">
        <ele>490.9</ele>
        <time>2025-05-18T10:17:42.000Z</time>
      </trkpt>
      <trkpt lat="43.62489" lon="6.22629">
        <ele>491.3</ele>
        <time>2025-05-18T10:17:51.000Z</time>
      </trkpt>
      <trkpt lat="43.62497" lon="6.22622">
        <ele>491.6</ele>
        <time>2025-05-18T10:18:01.000Z</time>
      </trkpt>
      <trkpt lat="43.62506" lon="6.22617">
        <ele>491.7</ele>
        <time>2025-05-18T10:18:12.000Z</time>
      </trkpt>
      <trkpt lat="43.62514" lon="6.22611">
        <ele>491.8</ele>
        <time>2025-05-18T10:18:20.000Z</time>
      </trkpt>
      <trkpt lat="43.62522" lon="6.22603">
        <ele>491.9</ele>
        <time>2025-05-18T10:18:29.000Z</time>
      </trkpt>
      <trkpt lat="43.6253" lon="6.22596">
        <ele>492.2</ele>
        <time>2025-05-18T10:18:39.000Z</time>
      </trkpt>
      <trkpt lat="43.62538" lon="6.22588">
        <ele>492.6</ele>
        <time>2025-05-18T10:18:48.000Z</time>
      </trkpt>
      <trkpt lat="43.62545" lon="6.22581">
        <ele>492.8</ele>
        <time>2025-05-18T10:18:58.000Z</time>
      </trkpt>
      <trkpt lat="43.62553" lon="6.22574">
        <ele>493.3</ele>
        <time>2025-05-18T10:19:09.000Z</time>
      </trkpt>
      <trkpt lat="43.62561" lon="6.22567">
        <ele>493.6</ele>
        <time>2025-05-18T10:19:19.000Z</time>
      </trkpt>
      <trkpt lat="43.62569" lon="6.2256">
        <ele>494.2</ele>
        <time>2025-05-18T10:19:32.000Z</time>
      </trkpt>
      <trkpt lat="43.62578" lon="6.22555">
        <ele>494.7</ele>
        <time>2025-05-18T10:19:43.000Z</time>
      </trkpt>
      <trkpt lat="43.62587" lon="6.22551">
        <ele>495.1</ele>
        <time>2025-05-18T10:19:58.000Z</time>
      </trkpt>
      <trkpt lat="43.62595" lon="6.22557">
        <ele>495.2</ele>
        <time>2025-05-18T10:20:14.000Z</time>
      </trkpt>
      <trkpt lat="43.62601" lon="6.22567">
        <ele>494.7</ele>
        <time>2025-05-18T10:20:28.000Z</time>
      </trkpt>
      <trkpt lat="43.62606" lon="6.22569">
        <ele>494.4</ele>
        <time>2025-05-18T10:20:35.000Z</time>
      </trkpt>
      <trkpt lat="43.62606" lon="6.22569">
        <ele>494.4</ele>
        <time>2025-05-18T10:20:35.000Z</time>
      </trkpt>
    </trkseg>
  </trk>
</gpx>